Observation data for Bootleg on 08/14/2019      Previous  Date  Next       Current Mesonet Observations  Soil Data  Daily Summary Page  Observations in Plain Language
KBO1 140500Z 13008KT 23/16 A3024 RMK A01 T02280161  RH  066%=      5-min Rain = 0
KBO1 140501Z 13008KT 23/16 A3024 RMK A01 T02270161  RH  066%=      5-min Rain = 0
KBO1 140502Z 13008KT 23/16 A3024 RMK A01 T02270161  RH  066%=      5-min Rain = 0
KBO1 140503Z 13008KT 23/16 A3024 RMK A01 T02270161  RH  066%=      5-min Rain = 0
KBO1 140504Z 14009KT 23/16 A3023 RMK A01 T02270161  RH  066%=      5-min Rain = 0
KBO1 140505Z 14008KT 23/16 A3024 RMK A01 T02270161  RH  066%=      5-min Rain = 0
KBO1 140506Z 13009KT 23/16 A3024 RMK A01 T02260161  RH  066%=      5-min Rain = 0
KBO1 140507Z 13008KT 23/16 A3024 RMK A01 T02270160  RH  066%=      5-min Rain = 0
KBO1 140508Z 13008KT 23/16 A3024 RMK A01 T02260160  RH  066%=      5-min Rain = 0
KBO1 140509Z 14008KT 23/16 A3024 RMK A01 T02260161  RH  066%=      5-min Rain = 0
KBO1 140510Z 14008KT 23/16 A3024 RMK A01 T02270161  RH  066%=      5-min Rain = 0
KBO1 140525Z 14008KT 22/16 A3024 RMK A01 T02220161  RH  068%=      5-min Rain = 0
KBO1 140526Z 14008KT 22/16 A3024 RMK A01 T02210161  RH  069%=      5-min Rain = 0
KBO1 140527Z 14008KT 22/16 A3024 RMK A01 T02210161  RH  069%=      5-min Rain = 0
KBO1 140528Z 14008KT 22/16 A3024 RMK A01 T02200161  RH  069%=      5-min Rain = 0
KBO1 140529Z 14008KT 22/16 A3024 RMK A01 T02200161  RH  069%=      5-min Rain = 0
KBO1 140530Z 14007KT 22/16 A3024 RMK A01 T02190161  RH  069%=      5-min Rain = 0
KBO1 140531Z 14008KT 22/16 A3024 RMK A01 T02190161  RH  070%=      5-min Rain = 0
KBO1 140532Z 14008KT 22/16 A3024 RMK A01 T02180161  RH  070%=      5-min Rain = 0
KBO1 140533Z 14008KT 22/16 A3024 RMK A01 T02170161  RH  070%=      5-min Rain = 0
KBO1 140534Z 14008KT 22/16 A3024 RMK A01 T02170161  RH  070%=      5-min Rain = 0
KBO1 140535Z 14008KT 22/16 A3024 RMK A01 T02170161  RH  070%=      5-min Rain = 0
KBO1 140536Z 13007KT 22/16 A3024 RMK A01 T02170161  RH  070%=      5-min Rain = 0
KBO1 140537Z 13007KT 22/16 A3024 RMK A01 T02160161  RH  071%=      5-min Rain = 0
KBO1 140538Z 13008KT 22/16 A3024 RMK A01 T02160161  RH  071%=      5-min Rain = 0
KBO1 140539Z 13008KT 22/16 A3024 RMK A01 T02160161  RH  071%=      5-min Rain = 0
KBO1 140540Z 12008KT 22/16 A3024 RMK A01 T02150161  RH  071%=      5-min Rain = 0
KBO1 140541Z 12008KT 22/16 A3024 RMK A01 T02160161  RH  071%=      5-min Rain = 0
KBO1 140542Z 12008KT 22/16 A3024 RMK A01 T02150161  RH  071%=      5-min Rain = 0
KBO1 140543Z 12007KT 22/16 A3025 RMK A01 T02150161  RH  071%=      5-min Rain = 0
KBO1 140544Z 12007KT 22/16 A3025 RMK A01 T02150161  RH  072%=      5-min Rain = 0
KBO1 140545Z 13007KT 21/16 A3025 RMK A01 T02130161  RH  072%=      5-min Rain = 0
KBO1 140546Z 13007KT 21/16 A3025 RMK A01 T02120161  RH  072%=      5-min Rain = 0
KBO1 140547Z 13007KT 21/16 A3025 RMK A01 T02120161  RH  073%=      5-min Rain = 0
KBO1 140548Z 13007KT 21/16 A3025 RMK A01 T02110161  RH  073%=      5-min Rain = 0
KBO1 140549Z 13008KT 21/16 A3025 RMK A01 T02100161  RH  073%=      5-min Rain = 0
KBO1 140550Z 13008KT 21/16 A3025 RMK A01 T02100161  RH  073%=      5-min Rain = 0
KBO1 140551Z 13007KT 21/16 A3025 RMK A01 T02100161  RH  073%=      5-min Rain = 0
KBO1 140552Z 13008KT 21/16 A3025 RMK A01 T02100161  RH  073%=      5-min Rain = 0
KBO1 140553Z 13008KT 21/16 A3025 RMK A01 T02100161  RH  073%=      5-min Rain = 0
KBO1 140554Z 13008KT 21/16 A3025 RMK A01 T02100161  RH  073%=      5-min Rain = 0
KBO1 140555Z 13008KT 21/16 A3025 RMK A01 T02100161  RH  073%=      5-min Rain = 0
KBO1 140556Z 13008KT 21/16 A3025 RMK A01 T02100161  RH  074%=      5-min Rain = 0
KBO1 140557Z 13008KT 21/16 A3025 RMK A01 T02100161  RH  074%=      5-min Rain = 0
KBO1 140558Z 13008KT 21/16 A3025 RMK A01 T02100161  RH  074%=      5-min Rain = 0
KBO1 140559Z 13008KT 21/16 A3025 RMK A01 T02100161  RH  074%=      5-min Rain = 0
KBO1 140600Z 13008KT 21/16 A3025 RMK A01 T02100161  RH  074%=      5-min Rain = 0
KBO1 140601Z 13008KT 21/16 A3025 RMK A01 T02100161  RH  074%=      5-min Rain = 0
KBO1 140602Z 13008KT 21/16 A3025 RMK A01 T02090161  RH  074%=      5-min Rain = 0
KBO1 140603Z 14007KT 21/16 A3025 RMK A01 T02090161  RH  074%=      5-min Rain = 0
KBO1 140604Z 14008KT 21/16 A3025 RMK A01 T02090161  RH  074%=      5-min Rain = 0
KBO1 140605Z 14007KT 21/16 A3025 RMK A01 T02080161  RH  074%=      5-min Rain = 0
KBO1 140606Z 14007KT 21/16 A3025 RMK A01 T02080161  RH  075%=      5-min Rain = 0
KBO1 140607Z 14007KT 21/16 A3025 RMK A01 T02070161  RH  075%=      5-min Rain = 0
KBO1 140608Z 14007KT 21/16 A3025 RMK A01 T02070161  RH  075%=      5-min Rain = 0
KBO1 140609Z 14008KT 21/16 A3025 RMK A01 T02060161  RH  075%=      5-min Rain = 0
KBO1 140610Z 14008KT 21/16 A3025 RMK A01 T02060161  RH  075%=      5-min Rain = 0
KBO1 140611Z 14008KT 21/16 A3025 RMK A01 T02050161  RH  076%=      5-min Rain = 0
KBO1 140612Z 14008KT 21/16 A3025 RMK A01 T02050161  RH  076%=      5-min Rain = 0
KBO1 140613Z 14008KT 21/16 A3025 RMK A01 T02050161  RH  076%=      5-min Rain = 0
KBO1 140614Z 13008KT 21/16 A3025 RMK A01 T02050161  RH  076%=      5-min Rain = 0
KBO1 140615Z 13008KT 20/16 A3025 RMK A01 T02040161  RH  076%=      5-min Rain = 0
KBO1 140616Z 13008KT 20/16 A3025 RMK A01 T02040161  RH  076%=      5-min Rain = 0
KBO1 140617Z 13008KT 20/16 A3025 RMK A01 T02040161  RH  076%=      5-min Rain = 0
KBO1 140618Z 13007KT 20/16 A3025 RMK A01 T02040162  RH  077%=      5-min Rain = 0
KBO1 140619Z 13007KT 20/16 A3025 RMK A01 T02030161  RH  077%=      5-min Rain = 0
KBO1 140620Z 13007KT 20/16 A3025 RMK A01 T02030162  RH  077%=      5-min Rain = 0
KBO1 140621Z 13007KT 20/16 A3025 RMK A01 T02030162  RH  077%=      5-min Rain = 0
KBO1 140622Z 13007KT 20/16 A3025 RMK A01 T02030161  RH  077%=      5-min Rain = 0
KBO1 140623Z 12008KT 20/16 A3025 RMK A01 T02030162  RH  077%=      5-min Rain = 0
KBO1 140624Z 12008KT 20/16 A3025 RMK A01 T02020161  RH  077%=      5-min Rain = 0
KBO1 140625Z 12008KT 20/16 A3025 RMK A01 T02030162  RH  077%=      5-min Rain = 0
KBO1 140626Z 12008KT 20/16 A3025 RMK A01 T02030162  RH  077%=      5-min Rain = 0
KBO1 140627Z 12008KT 20/16 A3026 RMK A01 T02030162  RH  077%=      5-min Rain = 0
KBO1 140628Z 12008KT 20/16 A3026 RMK A01 T02030162  RH  077%=      5-min Rain = 0
KBO1 140629Z 11008KT 20/16 A3026 RMK A01 T02030162  RH  077%=      5-min Rain = 0
KBO1 140630Z 11008KT 20/16 A3026 RMK A01 T02030162  RH  077%=      5-min Rain = 0
KBO1 140631Z 11008KT 20/16 A3026 RMK A01 T02030162  RH  077%=      5-min Rain = 0
KBO1 140632Z 10009KT 20/16 A3026 RMK A01 T02030162  RH  077%=      5-min Rain = 0
KBO1 140633Z 10008KT 20/16 A3026 RMK A01 T02030162  RH  077%=      5-min Rain = 0
KBO1 140634Z 10008KT 20/16 A3026 RMK A01 T02020161  RH  077%=      5-min Rain = 0
KBO1 140635Z 10008KT 20/16 A3027 RMK A01 T02020161  RH  078%=      5-min Rain = 0
KBO1 140636Z 09008KT 20/16 A3027 RMK A01 T02020162  RH  078%=      5-min Rain = 0
KBO1 140637Z 09009KT 20/16 A3027 RMK A01 T02020162  RH  078%=      5-min Rain = 0
KBO1 140638Z 09009KT 20/16 A3027 RMK A01 T02010162  RH  078%=      5-min Rain = 0
KBO1 140639Z 09010KT 20/16 A3027 RMK A01 T02010162  RH  078%=      5-min Rain = 0
KBO1 140640Z 09010KT 20/16 A3027 RMK A01 T02010162  RH  078%=      5-min Rain = 0
KBO1 140641Z 09010KT 20/16 A3027 RMK A01 T02010162  RH  078%=      5-min Rain = 0
KBO1 140642Z 09010KT 20/16 A3027 RMK A01 T02010161  RH  078%=      5-min Rain = 0
KBO1 140643Z 09010KT 20/16 A3027 RMK A01 T02010161  RH  078%=      5-min Rain = 0
KBO1 140644Z 09011KT 20/16 A3027 RMK A01 T02020162  RH  077%=      5-min Rain = 0
KBO1 140645Z 09012KT 20/16 A3027 RMK A01 T02030162  RH  077%=      5-min Rain = 0
KBO1 140646Z 09011KT 20/16 A3027 RMK A01 T02040162  RH  077%=      5-min Rain = 0
KBO1 140647Z 09012KT 21/16 A3027 RMK A01 T02050162  RH  076%=      5-min Rain = 0
KBO1 140648Z 10011KT 21/16 A3027 RMK A01 T02060162  RH  076%=      5-min Rain = 0
KBO1 140649Z 09011KT 21/16 A3027 RMK A01 T02070162  RH  076%=      5-min Rain = 0
KBO1 140650Z 09012KT 21/16 A3027 RMK A01 T02070163  RH  075%=      5-min Rain = 0
KBO1 140651Z 09012KT 21/16 A3028 RMK A01 T02080163  RH  075%=      5-min Rain = 0
KBO1 140652Z 09011KT 21/16 A3028 RMK A01 T02090163  RH  075%=      5-min Rain = 0
KBO1 140653Z 09012KT 21/16 A3028 RMK A01 T02100163  RH  075%=      5-min Rain = 0
KBO1 140654Z 10012KT 21/16 A3028 RMK A01 T02100163  RH  074%=      5-min Rain = 0
KBO1 140655Z 10010KT 21/16 A3028 RMK A01 T02110163  RH  074%=      5-min Rain = 0
KBO1 140656Z 09011KT 21/16 A3028 RMK A01 T02110164  RH  074%=      5-min Rain = 0
KBO1 140657Z 09012KT 21/16 A3028 RMK A01 T02110164  RH  074%=      5-min Rain = 0
KBO1 140658Z 09012KT 21/16 A3028 RMK A01 T02110164  RH  074%=      5-min Rain = 0
KBO1 140659Z 09011KT 21/16 A3028 RMK A01 T02110164  RH  074%=      5-min Rain = 0
KBO1 140700Z 09011KT 21/16 A3028 RMK A01 T02110163  RH  074%=      5-min Rain = 0
KBO1 140701Z 09011KT 21/16 A3028 RMK A01 T02110163  RH  074%=      5-min Rain = 0
KBO1 140702Z 09012KT 21/16 A3028 RMK A01 T02110163  RH  074%=      5-min Rain = 0
KBO1 140703Z 09010KT 21/16 A3028 RMK A01 T02100163  RH  074%=      5-min Rain = 0
KBO1 140704Z 09010KT 21/16 A3028 RMK A01 T02100163  RH  075%=      5-min Rain = 0
KBO1 140705Z 09010KT 21/16 A3028 RMK A01 T02090163  RH  075%=      5-min Rain = 0
KBO1 140706Z 09009KT 21/16 A3028 RMK A01 T02100164  RH  075%=      5-min Rain = 0
KBO1 140707Z 09008KT 21/16 A3027 RMK A01 T02090163  RH  075%=      5-min Rain = 0
KBO1 140708Z 10009KT 21/16 A3027 RMK A01 T02090163  RH  075%=      5-min Rain = 0
KBO1 140709Z 09008KT 21/16 A3027 RMK A01 T02090163  RH  075%=      5-min Rain = 0
KBO1 140710Z 10007KT 21/16 A3027 RMK A01 T02080163  RH  075%=      5-min Rain = 0
KBO1 140711Z 10007KT 21/16 A3027 RMK A01 T02080163  RH  075%=      5-min Rain = 0
KBO1 140712Z 10006KT 21/16 A3027 RMK A01 T02080163  RH  075%=      5-min Rain = 0
KBO1 140713Z 10007KT 21/16 A3027 RMK A01 T02080163  RH  076%=      5-min Rain = 0
KBO1 140714Z 10006KT 21/16 A3027 RMK A01 T02070163  RH  076%=      5-min Rain = 0
KBO1 140715Z 10006KT 21/16 A3027 RMK A01 T02070163  RH  076%=      5-min Rain = 0
KBO1 140716Z 10007KT 21/16 A3027 RMK A01 T02070164  RH  076%=      5-min Rain = 0
KBO1 140717Z 09009KT 21/16 A3027 RMK A01 T02070164  RH  076%=      5-min Rain = 0
KBO1 140718Z 09009KT 21/16 A3027 RMK A01 T02080164  RH  076%=      5-min Rain = 0
KBO1 140719Z 09009KT 21/16 A3027 RMK A01 T02090164  RH  075%=      5-min Rain = 0
KBO1 140720Z 09008KT 21/16 A3027 RMK A01 T02090164  RH  075%=      5-min Rain = 0
KBO1 140721Z 09008KT 21/16 A3027 RMK A01 T02090164  RH  076%=      5-min Rain = 0
KBO1 140722Z 09008KT 21/16 A3027 RMK A01 T02080164  RH  076%=      5-min Rain = 0
KBO1 140723Z 09009KT 21/16 A3027 RMK A01 T02070164  RH  076%=      5-min Rain = 0
KBO1 140724Z 08008KT 21/17 A3027 RMK A01 T02080165  RH  076%=      5-min Rain = 0
KBO1 140725Z 08009KT 21/16 A3027 RMK A01 T02070164  RH  076%=      5-min Rain = 0
KBO1 140726Z 08010KT 21/16 A3027 RMK A01 T02070164  RH  076%=      5-min Rain = 0
KBO1 140727Z 08009KT 21/16 A3027 RMK A01 T02070164  RH  076%=      5-min Rain = 0
KBO1 140728Z 08010KT 21/16 A3027 RMK A01 T02070164  RH  076%=      5-min Rain = 0
KBO1 140729Z 08010KT 21/16 A3027 RMK A01 T02070164  RH  077%=      5-min Rain = 0
KBO1 140730Z 09011KT 21/17 A3027 RMK A01 T02060165  RH  077%=      5-min Rain = 0
KBO1 140731Z 09010KT 21/16 A3027 RMK A01 T02060164  RH  077%=      5-min Rain = 0
KBO1 140732Z 09010KT 21/16 A3027 RMK A01 T02060164  RH  077%=      5-min Rain = 0
KBO1 140733Z 09010KT 21/16 A3027 RMK A01 T02050164  RH  077%=      5-min Rain = 0
KBO1 140734Z 09011KT 21/16 A3027 RMK A01 T02050164  RH  077%=      5-min Rain = 0
KBO1 140735Z 09012KT 21/16 A3027 RMK A01 T02050164  RH  077%=      5-min Rain = 0
KBO1 140736Z 09009KT 21/16 A3027 RMK A01 T02050164  RH  077%=      5-min Rain = 0
KBO1 140737Z 09010KT 21/17 A3027 RMK A01 T02050165  RH  077%=      5-min Rain = 0
KBO1 140738Z 09010KT 21/17 A3027 RMK A01 T02050165  RH  078%=      5-min Rain = 0
KBO1 140739Z 09010KT 21/17 A3027 RMK A01 T02050165  RH  078%=      5-min Rain = 0
KBO1 140740Z 10010KT 21/17 A3026 RMK A01 T02050165  RH  078%=      5-min Rain = 0
KBO1 140741Z 10011KT 21/17 A3026 RMK A01 T02050165  RH  078%=      5-min Rain = 0
KBO1 140742Z 10012KT 21/17 A3026 RMK A01 T02050166  RH  078%=      5-min Rain = 0
KBO1 140743Z 10011KT 21/17 A3026 RMK A01 T02060166  RH  078%=      5-min Rain = 0
KBO1 140744Z 11012KT 21/17 A3026 RMK A01 T02060166  RH  078%=      5-min Rain = 0
KBO1 140745Z 11012KT 21/17 A3026 RMK A01 T02060166  RH  078%=      5-min Rain = 0
KBO1 140746Z 11013KT 21/17 A3026 RMK A01 T02060166  RH  078%=      5-min Rain = 0
KBO1 140747Z 11012KT 21/17 A3026 RMK A01 T02070166  RH  077%=      5-min Rain = 0
KBO1 140748Z 11013KT 21/17 A3025 RMK A01 T02070166  RH  077%=      5-min Rain = 0
KBO1 140749Z 11013KT 21/17 A3025 RMK A01 T02070166  RH  077%=      5-min Rain = 0
KBO1 140750Z 11012KT 21/17 A3025 RMK A01 T02070166  RH  078%=      5-min Rain = 0
KBO1 140751Z 11012KT 21/17 A3025 RMK A01 T02060166  RH  078%=      5-min Rain = 0
KBO1 140752Z 11012KT 21/17 A3025 RMK A01 T02050166  RH  078%=      5-min Rain = 0
KBO1 140753Z 11012KT 21/17 A3026 RMK A01 T02050166  RH  078%=      5-min Rain = 0
KBO1 140754Z 11011KT 20/17 A3026 RMK A01 T02040166  RH  079%=      5-min Rain = 0
KBO1 140755Z 11011KT 20/17 A3026 RMK A01 T02030166  RH  079%=      5-min Rain = 0
KBO1 140756Z 11010KT 20/17 A3026 RMK A01 T02030166  RH  079%=      5-min Rain = 0
KBO1 140757Z 11011KT 20/17 A3026 RMK A01 T02030166  RH  079%=      5-min Rain = 0
KBO1 140758Z 11011KT 20/17 A3026 RMK A01 T02030166  RH  079%=      5-min Rain = 0
KBO1 140759Z 12010KT 20/17 A3026 RMK A01 T02020166  RH  080%=      5-min Rain = 0
KBO1 140800Z 12011KT 20/17 A3026 RMK A01 T02020166  RH  080%=      5-min Rain = 0
KBO1 140801Z 12010KT 20/17 A3026 RMK A01 T02010166  RH  080%=      5-min Rain = 0
KBO1 140802Z 12010KT 20/17 A3026 RMK A01 T02000166  RH  080%=      5-min Rain = 0
KBO1 140803Z 12010KT 20/17 A3026 RMK A01 T02000166  RH  081%=      5-min Rain = 0
KBO1 140804Z 12011KT 20/17 A3026 RMK A01 T02000166  RH  081%=      5-min Rain = 0
KBO1 140805Z 12009KT 20/17 A3025 RMK A01 T02000166  RH  081%=      5-min Rain = 0
KBO1 140806Z 12009KT 20/17 A3025 RMK A01 T01990166  RH  081%=      5-min Rain = 0
KBO1 140807Z 12009KT 20/17 A3025 RMK A01 T01980166  RH  082%=      5-min Rain = 0
KBO1 140808Z 12009KT 20/17 A3025 RMK A01 T01980166  RH  082%=      5-min Rain = 0
KBO1 140809Z 12010KT 20/17 A3025 RMK A01 T01970166  RH  082%=      5-min Rain = 0
KBO1 140810Z 12010KT 20/17 A3025 RMK A01 T01970166  RH  082%=      5-min Rain = 0
KBO1 140811Z 12009KT 20/17 A3025 RMK A01 T01970166  RH  082%=      5-min Rain = 0
KBO1 140812Z 12009KT 20/17 A3025 RMK A01 T01970166  RH  083%=      5-min Rain = 0
KBO1 140813Z 12010KT 20/17 A3025 RMK A01 T01960166  RH  083%=      5-min Rain = 0
KBO1 140814Z 13009KT 20/17 A3025 RMK A01 T01960166  RH  083%=      5-min Rain = 0
KBO1 140815Z 13009KT 20/17 A3025 RMK A01 T01960167  RH  083%=      5-min Rain = 0
KBO1 140816Z 13009KT 20/17 A3025 RMK A01 T01950166  RH  083%=      5-min Rain = 0
KBO1 140817Z 12009KT 20/17 A3025 RMK A01 T01950166  RH  084%=      5-min Rain = 0
KBO1 140818Z 13008KT 19/17 A3025 RMK A01 T01940166  RH  084%=      5-min Rain = 0
KBO1 140819Z 13008KT 19/17 A3025 RMK A01 T01940167  RH  084%=      5-min Rain = 0
KBO1 140820Z 13009KT 19/17 A3025 RMK A01 T01940167  RH  084%=      5-min Rain = 0
KBO1 140821Z 13009KT 19/17 A3025 RMK A01 T01930167  RH  084%=      5-min Rain = 0
KBO1 140822Z 13009KT 19/17 A3025 RMK A01 T01940167  RH  084%=      5-min Rain = 0
KBO1 140823Z 13008KT 19/17 A3025 RMK A01 T01940167  RH  084%=      5-min Rain = 0
KBO1 140824Z 13009KT 19/17 A3025 RMK A01 T01940166  RH  084%=      5-min Rain = 0
KBO1 140825Z 13009KT 19/17 A3025 RMK A01 T01930166  RH  084%=      5-min Rain = 0
KBO1 140826Z 13009KT 19/17 A3025 RMK A01 T01930166  RH  084%=      5-min Rain = 0
KBO1 140827Z 13009KT 19/17 A3025 RMK A01 T01930166  RH  084%=      5-min Rain = 0
KBO1 140828Z 13009KT 19/17 A3025 RMK A01 T01930166  RH  084%=      5-min Rain = 0
KBO1 140829Z 13010KT 19/17 A3025 RMK A01 T01930166  RH  084%=      5-min Rain = 0
KBO1 140830Z 13009KT 19/17 A3025 RMK A01 T01920166  RH  085%=      5-min Rain = 0
KBO1 140831Z 13010KT 19/17 A3025 RMK A01 T01920166  RH  085%=      5-min Rain = 0
KBO1 140832Z 13010KT 19/17 A3025 RMK A01 T01910166  RH  085%=      5-min Rain = 0
KBO1 140833Z 13010KT 19/17 A3025 RMK A01 T01910166  RH  085%=      5-min Rain = 0
KBO1 140834Z 13010KT 19/17 A3025 RMK A01 T01910166  RH  085%=      5-min Rain = 0
KBO1 140835Z 13009KT 19/17 A3025 RMK A01 T01910166  RH  085%=      5-min Rain = 0
KBO1 140836Z 13010KT 19/17 A3025 RMK A01 T01900166  RH  086%=      5-min Rain = 0
KBO1 140837Z 13009KT 19/17 A3025 RMK A01 T01900165  RH  086%=      5-min Rain = 0
KBO1 140838Z 13009KT 19/17 A3025 RMK A01 T01900166  RH  086%=      5-min Rain = 0
KBO1 140839Z 13009KT 19/17 A3025 RMK A01 T01900165  RH  086%=      5-min Rain = 0
KBO1 140840Z 13008KT 19/17 A3025 RMK A01 T01900166  RH  086%=      5-min Rain = 0
KBO1 140841Z 13009KT 19/17 A3025 RMK A01 T01900166  RH  086%=      5-min Rain = 0
KBO1 140842Z 13008KT 19/17 A3025 RMK A01 T01890165  RH  086%=      5-min Rain = 0
KBO1 140843Z 12008KT 19/17 A3025 RMK A01 T01900166  RH  086%=      5-min Rain = 0
KBO1 140844Z 12008KT 19/17 A3025 RMK A01 T01900166  RH  086%=      5-min Rain = 0
KBO1 140845Z 12008KT 19/17 A3025 RMK A01 T01900166  RH  086%=      5-min Rain = 0
KBO1 140846Z 12008KT 19/17 A3025 RMK A01 T01890166  RH  086%=      5-min Rain = 0
KBO1 140847Z 12008KT 19/17 A3025 RMK A01 T01900166  RH  086%=      5-min Rain = 0
KBO1 140848Z 12008KT 19/17 A3025 RMK A01 T01890166  RH  086%=      5-min Rain = 0
KBO1 140849Z 12008KT 19/17 A3025 RMK A01 T01890166  RH  086%=      5-min Rain = 0
KBO1 140850Z 12008KT 19/17 A3025 RMK A01 T01890166  RH  086%=      5-min Rain = 0
KBO1 140851Z 12008KT 19/17 A3025 RMK A01 T01890166  RH  086%=      5-min Rain = 0
KBO1 140852Z 12008KT 19/17 A3025 RMK A01 T01890166  RH  087%=      5-min Rain = 0
KBO1 140853Z 12008KT 19/17 A3025 RMK A01 T01890166  RH  087%=      5-min Rain = 0
KBO1 140854Z 11008KT 19/17 A3026 RMK A01 T01890166  RH  087%=      5-min Rain = 0
KBO1 140855Z 11008KT 19/17 A3026 RMK A01 T01890166  RH  086%=      5-min Rain = 0
KBO1 140856Z 11008KT 19/17 A3026 RMK A01 T01890166  RH  086%=      5-min Rain = 0
KBO1 140857Z 11009KT 19/17 A3026 RMK A01 T01890166  RH  086%=      5-min Rain = 0
KBO1 140858Z 11008KT 19/17 A3026 RMK A01 T01890166  RH  086%=      5-min Rain = 0
KBO1 140859Z 09009KT 19/17 A3026 RMK A01 T01890166  RH  086%=      5-min Rain = 0
KBO1 140900Z 08010KT 19/17 A3026 RMK A01 T01890166  RH  086%=      5-min Rain = 0
KBO1 140901Z 08009KT 19/17 A3027 RMK A01 T01890166  RH  087%=      5-min Rain = 0
KBO1 140902Z 08010KT 19/17 A3027 RMK A01 T01890166  RH  087%=      5-min Rain = 0
KBO1 140903Z 08013KT 19/17 A3027 RMK A01 T01890166  RH  087%=      5-min Rain = 0
KBO1 140904Z 07015KT 19/17 A3027 RMK A01 T01890166  RH  086%=      5-min Rain = 0
KBO1 140905Z 07012KT 19/17 A3027 RMK A01 T01910166  RH  085%=      5-min Rain = 0
KBO1 140906Z 07012KT 19/17 A3027 RMK A01 T01910165  RH  085%=      5-min Rain = 0
KBO1 140907Z 07012KT 19/17 A3027 RMK A01 T01910165  RH  085%=      5-min Rain = 0
KBO1 140908Z 06013KT 19/17 A3028 RMK A01 T01910165  RH  085%=      5-min Rain = 0
KBO1 140909Z 06014KT 19/17 A3028 RMK A01 T01910165  RH  085%=      5-min Rain = 0
KBO1 140910Z 06011KT 19/16 A3028 RMK A01 T01900164  RH  085%=      5-min Rain = 0
KBO1 140911Z 06015KT 19/16 A3029 RMK A01 T01890164  RH  086%=      5-min Rain = 0
KBO1 140912Z 06016KT 19/17 A3029 RMK A01 T01890165  RH  086%=      5-min Rain = 0
KBO1 140913Z 06016KT 19/17 A3029 RMK A01 T01880166  RH  087%=      5-min Rain = 0
KBO1 140914Z 07015KT 19/17 A3029 RMK A01 T01880165  RH  087%=      5-min Rain = 0
KBO1 140915Z 07015KT 19/17 A3029 RMK A01 T01880165  RH  086%=      5-min Rain = 0
KBO1 140916Z 07013KT 19/16 A303 RMK A01 T01880164  RH  086%=      5-min Rain = 0
KBO1 140917Z 07016KT 19/16 A303 RMK A01 T01870162  RH  085%=      5-min Rain = 0
KBO1 140918Z 07014KT 19/16 A303 RMK A01 T01870161  RH  085%=      5-min Rain = 0
KBO1 140919Z 07018KT 19/16 A303 RMK A01 T01870160  RH  084%=      5-min Rain = 0
KBO1 140920Z 06018KT 19/16 A303 RMK A01 T01870158  RH  083%=      5-min Rain = 0
KBO1 140921Z 06018KT 19/16 A303 RMK A01 T01870157  RH  083%=      5-min Rain = 0
KBO1 140922Z 06018KT 19/16 A303 RMK A01 T01860156  RH  082%=      5-min Rain = 0
KBO1 140923Z 07018KT 19/15 A303 RMK A01 T01860154  RH  082%=      5-min Rain = 0
KBO1 140924Z 07016KT 19/15 A303 RMK A01 T01860153  RH  081%=      5-min Rain = 0
KBO1 140925Z 07015G20KT 19/15 A303 RMK A01 T01850152  RH  081%=      5-min Rain = 0
KBO1 140926Z 07015KT 19/15 A303 RMK A01 T01850151  RH  081%=      5-min Rain = 0
KBO1 140927Z 06015KT 18/15 A303 RMK A01 T01840151  RH  081%=      5-min Rain = 0
KBO1 140928Z 06013KT 18/15 A303 RMK A01 T01840151  RH  081%=      5-min Rain = 0
KBO1 140929Z 06013G18KT 18/15 A303 RMK A01 T01840151  RH  081%=      5-min Rain = 0
KBO1 140930Z 06017KT 18/15 A303 RMK A01 T01830149  RH  080%=      5-min Rain = 0
KBO1 140931Z 07018KT 18/15 A3031 RMK A01 T01830146  RH  079%=      5-min Rain = 0
KBO1 140932Z 07015KT 18/15 A3031 RMK A01 T01820145  RH  079%=      5-min Rain = 0
KBO1 140933Z 07019KT 18/14 A3031 RMK A01 T01820144  RH  078%=      5-min Rain = 0
KBO1 140934Z 07016KT 18/14 A3031 RMK A01 T01820141  RH  077%=      5-min Rain = 0
KBO1 140935Z 07014KT 18/14 A3031 RMK A01 T01810141  RH  077%=      5-min Rain = 0
KBO1 140936Z 07013KT 18/14 A3031 RMK A01 T01810141  RH  078%=      5-min Rain = 0
KBO1 140937Z 07013KT 18/14 A3031 RMK A01 T01810141  RH  078%=      5-min Rain = 0
KBO1 140938Z 07012KT 18/14 A3031 RMK A01 T01810141  RH  078%=      5-min Rain = 0
KBO1 140939Z 06016KT 18/14 A3031 RMK A01 T01800139  RH  077%=      5-min Rain = 0
KBO1 140940Z 07016KT 18/14 A3031 RMK A01 T01800136  RH  075%=      5-min Rain = 0
KBO1 140941Z 07014KT 18/14 A3031 RMK A01 T01810136  RH  075%=      5-min Rain = 0
KBO1 140942Z 07018KT 18/14 A3031 RMK A01 T01810135  RH  075%=      5-min Rain = 0
KBO1 140943Z 06017KT 18/13 A3031 RMK A01 T01800134  RH  074%=      5-min Rain = 0
KBO1 140944Z 06017KT 18/13 A3031 RMK A01 T01800133  RH  074%=      5-min Rain = 0
KBO1 140945Z 06017KT 18/13 A3031 RMK A01 T01800133  RH  074%=      5-min Rain = 0
KBO1 140946Z 06017KT 18/13 A3032 RMK A01 T01800133  RH  074%=      5-min Rain = 0
KBO1 140947Z 05016KT 18/13 A3032 RMK A01 T01790133  RH  074%=      5-min Rain = 0
KBO1 140948Z 05015KT 18/13 A3032 RMK A01 T01790133  RH  075%=      5-min Rain = 0
KBO1 140949Z 05015KT 18/13 A3032 RMK A01 T01780134  RH  075%=      5-min Rain = 0
KBO1 140950Z 05015KT 18/13 A3032 RMK A01 T01780134  RH  075%=      5-min Rain = 0
KBO1 140951Z 04015KT 18/14 A3032 RMK A01 T01780135  RH  076%=      5-min Rain = 0
KBO1 140952Z 04015KT 18/14 A3032 RMK A01 T01780136  RH  076%=      5-min Rain = 0
KBO1 140953Z 03016KT 18/14 A3032 RMK A01 T01780138  RH  077%=      5-min Rain = 0
KBO1 140954Z 03015KT 18/14 A3032 RMK A01 T01780140  RH  078%=      5-min Rain = 0
KBO1 140955Z 03016KT 18/14 A3032 RMK A01 T01780140  RH  078%=      5-min Rain = 0
KBO1 140956Z 03017KT 18/14 A3032 RMK A01 T01780140  RH  078%=      5-min Rain = 0
KBO1 140957Z 04015KT 18/14 A3032 RMK A01 T01780139  RH  078%=      5-min Rain = 0
KBO1 140958Z 04018KT 18/14 A3032 RMK A01 T01770138  RH  078%=      5-min Rain = 0
KBO1 140959Z 04017KT 18/14 A3031 RMK A01 T01770136  RH  077%=      5-min Rain = 0
KBO1 141000Z 04016G21KT 18/14 A3031 RMK A01 T01760136  RH  077%=      5-min Rain = 0
KBO1 141001Z 04018KT 18/14 A3031 RMK A01 T01760135  RH  077%=      5-min Rain = 0
KBO1 141002Z 04019KT 18/13 A3031 RMK A01 T01750133  RH  076%=      5-min Rain = 0
KBO1 141003Z 05015G20KT 17/13 A3031 RMK A01 T01740132  RH  076%=      5-min Rain = 0
KBO1 141004Z 04017KT 17/13 A3031 RMK A01 T01740131  RH  076%=      5-min Rain = 0
KBO1 141005Z 04015G20KT 17/13 A3032 RMK A01 T01730130  RH  076%=      5-min Rain = 0
KBO1 141006Z 03018KT 17/13 A3032 RMK A01 T01740129  RH  075%=      5-min Rain = 0
KBO1 141007Z 04018KT 17/13 A3032 RMK A01 T01740128  RH  074%=      5-min Rain = 0
KBO1 141008Z 04016KT 17/13 A3031 RMK A01 T01740127  RH  074%=      5-min Rain = 0
KBO1 141009Z 04016KT 18/13 A3031 RMK A01 T01750126  RH  073%=      5-min Rain = 0
KBO1 141010Z 04016KT 18/13 A3031 RMK A01 T01750126  RH  073%=      5-min Rain = 0
KBO1 141011Z 05017KT 18/13 A3031 RMK A01 T01750125  RH  072%=      5-min Rain = 0
KBO1 141012Z 05015KT 18/13 A3031 RMK A01 T01760125  RH  072%=      5-min Rain = 0
KBO1 141013Z 05014KT 18/12 A3031 RMK A01 T01760124  RH  072%=      5-min Rain = 0
KBO1 141014Z 05011KT 18/12 A3031 RMK A01 T01760124  RH  072%=      5-min Rain = 0
KBO1 141015Z 05012KT 18/12 A3031 RMK A01 T01760124  RH  072%=      5-min Rain = 0
KBO1 141016Z 05015G20KT 18/12 A3031 RMK A01 T01760124  RH  071%=      5-min Rain = 0
KBO1 141017Z 05015KT 18/12 A303 RMK A01 T01770123  RH  071%=      5-min Rain = 0
KBO1 141018Z 06017KT 18/12 A303 RMK A01 T01760122  RH  070%=      5-min Rain = 0
KBO1 141019Z 06013KT 18/12 A3029 RMK A01 T01760122  RH  070%=      5-min Rain = 0
KBO1 141020Z 06016KT 18/12 A3029 RMK A01 T01760123  RH  071%=      5-min Rain = 0
KBO1 141021Z 06016KT 18/12 A3029 RMK A01 T01760122  RH  070%=      5-min Rain = 0
KBO1 141022Z 07014KT 18/12 A3029 RMK A01 T01760122  RH  070%=      5-min Rain = 0
KBO1 141023Z 07016KT 18/12 A3029 RMK A01 T01760121  RH  070%=      5-min Rain = 0
KBO1 141024Z 07016KT 18/12 A3029 RMK A01 T01760121  RH  070%=      5-min Rain = 0
KBO1 141025Z 06015G20KT 18/12 A3029 RMK A01 T01760120  RH  070%=      5-min Rain = 0
KBO1 141026Z 07018KT 18/12 A3029 RMK A01 T01760120  RH  069%=      5-min Rain = 0
KBO1 141027Z 07018KT 18/12 A3029 RMK A01 T01770119  RH  069%=      5-min Rain = 0
KBO1 141028Z 06016KT 18/12 A3029 RMK A01 T01770119  RH  069%=      5-min Rain = 0
KBO1 141029Z 07016KT 18/12 A3029 RMK A01 T01770118  RH  069%=      5-min Rain = 0
KBO1 141030Z 07016KT 18/12 A3029 RMK A01 T01770118  RH  068%=      5-min Rain = 0
KBO1 141031Z 07019KT 18/12 A3029 RMK A01 T01770118  RH  068%=      5-min Rain = 0
KBO1 141032Z 07021KT 18/12 A3029 RMK A01 T01770117  RH  068%=      5-min Rain = 0
KBO1 141033Z 07019KT 18/12 A3029 RMK A01 T01760116  RH  068%=      5-min Rain = 0
KBO1 141034Z 07015KT 18/12 A3029 RMK A01 T01760117  RH  068%=      5-min Rain = 0
KBO1 141035Z 06015KT 18/12 A3029 RMK A01 T01760117  RH  068%=      5-min Rain = 0
KBO1 141036Z 07016KT 18/12 A3029 RMK A01 T01770117  RH  068%=      5-min Rain = 0
KBO1 141037Z 06015G20KT 18/12 A303 RMK A01 T01760117  RH  068%=      5-min Rain = 0
KBO1 141038Z 07016KT 18/12 A303 RMK A01 T01760117  RH  068%=      5-min Rain = 0
KBO1 141039Z 07013KT 18/12 A303 RMK A01 T01760117  RH  068%=      5-min Rain = 0
KBO1 141040Z 07015KT 18/12 A303 RMK A01 T01760117  RH  068%=      5-min Rain = 0
KBO1 141041Z 07012KT 18/12 A303 RMK A01 T01760116  RH  068%=      5-min Rain = 0
KBO1 141042Z 07014KT 18/12 A3031 RMK A01 T01760116  RH  068%=      5-min Rain = 0
KBO1 141043Z 07014KT 18/12 A3031 RMK A01 T01760116  RH  068%=      5-min Rain = 0
KBO1 141044Z 07012KT 18/12 A3031 RMK A01 T01770116  RH  068%=      5-min Rain = 0
KBO1 141045Z 07012KT 18/12 A3031 RMK A01 T01770117  RH  068%=      5-min Rain = 0
KBO1 141046Z 07012KT 18/12 A3031 RMK A01 T01770117  RH  068%=      5-min Rain = 0
KBO1 141047Z 07010KT 18/12 A3031 RMK A01 T01770116  RH  068%=      5-min Rain = 0
KBO1 141048Z 07011KT 18/12 A3032 RMK A01 T01770116  RH  068%=      5-min Rain = 0
KBO1 141049Z 07011KT 18/12 A3032 RMK A01 T01780117  RH  067%=      5-min Rain = 0
KBO1 141050Z 07012KT 18/12 A3032 RMK A01 T01770116  RH  067%=      5-min Rain = 0
KBO1 141051Z 08014KT 18/12 A3032 RMK A01 T01770116  RH  067%=      5-min Rain = 0
KBO1 141052Z 07015KT 18/12 A3032 RMK A01 T01780115  RH  067%=      5-min Rain = 0
KBO1 141053Z 07011KT 18/12 A3032 RMK A01 T01780116  RH  067%=      5-min Rain = 0
KBO1 141054Z 07013KT 18/12 A3032 RMK A01 T01780116  RH  067%=      5-min Rain = 0
KBO1 141055Z 08014KT 18/12 A3032 RMK A01 T01780116  RH  067%=      5-min Rain = 0
KBO1 141056Z 08014KT 18/12 A3032 RMK A01 T01780116  RH  067%=      5-min Rain = 0
KBO1 141057Z 08013KT 18/12 A3032 RMK A01 T01780116  RH  067%=      5-min Rain = 0
KBO1 141058Z 07012KT 18/12 A3032 RMK A01 T01780116  RH  067%=      5-min Rain = 0
KBO1 141059Z 07012KT 18/12 A3032 RMK A01 T01780116  RH  067%=      5-min Rain = 0
KBO1 141100Z 06012KT 18/12 A3032 RMK A01 T01780116  RH  067%=      5-min Rain = 0
KBO1 141101Z 07012KT 18/12 A3032 RMK A01 T01780116  RH  067%=      5-min Rain = 0
KBO1 141102Z 07010KT 18/12 A3032 RMK A01 T01780116  RH  067%=      5-min Rain = 0
KBO1 141103Z 07012KT 18/12 A3032 RMK A01 T01780117  RH  067%=      5-min Rain = 0
KBO1 141104Z 08011KT 18/12 A3032 RMK A01 T01780116  RH  067%=      5-min Rain = 0
KBO1 141105Z 07013KT 18/12 A3032 RMK A01 T01780116  RH  067%=      5-min Rain = 0
KBO1 141106Z 07012KT 18/12 A3032 RMK A01 T01780116  RH  067%=      5-min Rain = 0
KBO1 141107Z 07013KT 18/12 A3033 RMK A01 T01780116  RH  067%=      5-min Rain = 0
KBO1 141108Z 08013KT 18/12 A3033 RMK A01 T01780115  RH  066%=      5-min Rain = 0
KBO1 141109Z 07011KT 18/12 A3033 RMK A01 T01790115  RH  066%=      5-min Rain = 0
KBO1 141110Z 07008KT 18/12 A3033 RMK A01 T01780116  RH  067%=      5-min Rain = 0
KBO1 141111Z 06009KT 18/12 A3033 RMK A01 T01790117  RH  067%=      5-min Rain = 0
KBO1 141112Z 06011KT 18/12 A3033 RMK A01 T01780116  RH  067%=      5-min Rain = 0
KBO1 141113Z 07011KT 18/12 A3033 RMK A01 T01780116  RH  067%=      5-min Rain = 0
KBO1 141114Z 06011KT 18/12 A3033 RMK A01 T01780116  RH  067%=      5-min Rain = 0
KBO1 141115Z 06012KT 18/12 A3033 RMK A01 T01780117  RH  067%=      5-min Rain = 0
KBO1 141116Z 06012KT 18/12 A3034 RMK A01 T01780116  RH  067%=      5-min Rain = 0
KBO1 141117Z 06012KT 18/12 A3034 RMK A01 T01780117  RH  067%=      5-min Rain = 0
KBO1 141118Z 06012KT 18/12 A3034 RMK A01 T01770117  RH  068%=      5-min Rain = 0
KBO1 141119Z 06011KT 18/12 A3034 RMK A01 T01770118  RH  068%=      5-min Rain = 0
KBO1 141120Z 06012KT 18/12 A3034 RMK A01 T01770118  RH  069%=      5-min Rain = 0
KBO1 141121Z 07011KT 18/12 A3034 RMK A01 T01770118  RH  069%=      5-min Rain = 0
KBO1 141122Z 06010KT 18/12 A3034 RMK A01 T01760119  RH  069%=      5-min Rain = 0
KBO1 141123Z 06010KT 18/12 A3034 RMK A01 T01760120  RH  070%=      5-min Rain = 0
KBO1 141124Z 06009KT 18/12 A3034 RMK A01 T01750120  RH  070%=      5-min Rain = 0
KBO1 141125Z 06007KT 18/12 A3034 RMK A01 T01750121  RH  071%=      5-min Rain = 0
KBO1 141126Z 06010KT 18/12 A3034 RMK A01 T01750121  RH  071%=      5-min Rain = 0
KBO1 141127Z 06009KT 18/12 A3034 RMK A01 T01750121  RH  071%=      5-min Rain = 0
KBO1 141128Z 06008KT 17/12 A3035 RMK A01 T01740122  RH  071%=      5-min Rain = 0
KBO1 141129Z 05007KT 17/12 A3035 RMK A01 T01740122  RH  071%=      5-min Rain = 0
KBO1 141130Z 04006KT 17/12 A3035 RMK A01 T01740122  RH  072%=      5-min Rain = 0
KBO1 141131Z 03008KT 17/12 A3036 RMK A01 T01740124  RH  073%=      5-min Rain = 0
KBO1 141132Z 02010KT 17/12 A3036 RMK A01 T01730122  RH  072%=      5-min Rain = 0
KBO1 141133Z 02009KT 17/12 A3036 RMK A01 T01730123  RH  072%=      5-min Rain = 0
KBO1 141134Z 00011KT 17/12 A3037 RMK A01 T01730122  RH  072%=      5-min Rain = 0
KBO1 141135Z 35011KT 17/12 A3037 RMK A01 T01730124  RH  073%=      5-min Rain = 0
KBO1 141136Z 34013KT 17/13 A3038 RMK A01 T01720126  RH  074%=      5-min Rain = 0
KBO1 141137Z 34012KT 17/13 A3038 RMK A01 T01710128  RH  076%=      5-min Rain = 0
KBO1 141138Z 33014G19KT 17/13 A3038 RMK A01 T01680130  RH  078%=      5-min Rain = 0
KBO1 141139Z 33015KT 17/13 A3038 RMK A01 T01650133  RH  081%=      5-min Rain = 0
KBO1 141140Z 33017KT 16/13 A3037 RMK A01 T01620133  RH  083%=      5-min Rain = 0
KBO1 141141Z 33019KT 16/13 A3037 RMK A01 T01590133  RH  085%=      5-min Rain = 0
KBO1 141142Z 33017KT 16/13 A3038 RMK A01 T01570134  RH  086%=      5-min Rain = 0
KBO1 141143Z 33013G18KT 16/13 A3037 RMK A01 T01560134  RH  087%=      5-min Rain = 0
KBO1 141144Z 00013G21KT 16/13 A3037 RMK A01 T01550134  RH  088%=      5-min Rain = 0
KBO1 141145Z 00018KT 15/14 A3036 RMK A01 T01540135  RH  088%=      5-min Rain = 0
KBO1 141146Z 01018G23KT 16/13 A3036 RMK A01 T01560134  RH  087%=      5-min Rain = 0
KBO1 141147Z 02014KT 16/13 A3036 RMK A01 T01580132  RH  085%=      5-min Rain = 0.01
KBO1 141148Z 03020KT 16/13 A3035 RMK A01 T01600131  RH  083%=      5-min Rain = 0
KBO1 141149Z 02018KT 16/13 A3035 RMK A01 T01630130  RH  081%=      5-min Rain = 0
KBO1 141150Z 01021KT 16/13 A3035 RMK A01 T01640132  RH  082%=      5-min Rain = 0
KBO1 141151Z 02026G31KT 16/13 A3035 RMK A01 T01630131  RH  081%=      5-min Rain = 0.01
KBO1 141152Z 02026KT 17/13 A3036 RMK A01 T01650129  RH  079%=      5-min Rain = 0
KBO1 141153Z 01024KT 17/13 A3036 RMK A01 T01680130  RH  078%=      5-min Rain = 0
KBO1 141154Z 01021KT 17/13 A3036 RMK A01 T01660131  RH  079%=      5-min Rain = 0
KBO1 141155Z 01020KT 16/13 A3037 RMK A01 T01640133  RH  082%=      5-min Rain = 0
KBO1 141156Z 36022KT 16/13 A3037 RMK A01 T01600134  RH  084%=      5-min Rain = 0
KBO1 141157Z 36023KT 16/14 A3037 RMK A01 T01560135  RH  087%=      5-min Rain = 0
KBO1 141158Z 36021G26KT 15/14 A3037 RMK A01 T01540137  RH  090%=      5-min Rain = 0
KBO1 141159Z 35022KT 15/14 A3037 RMK A01 T01520138  RH  091%=      5-min Rain = 0
KBO1 141200Z 35022KT 15/14 A3037 RMK A01 T01500138  RH  093%=      5-min Rain = 0
KBO1 141201Z 35024KT 15/14 A3037 RMK A01 T01490139  RH  094%=      5-min Rain = 0
KBO1 141202Z 36022KT 15/14 A3037 RMK A01 T01480139  RH  094%=      5-min Rain = 0
KBO1 141203Z 36019KT 15/14 A3037 RMK A01 T01480140  RH  095%=      5-min Rain = 0
KBO1 141204Z 00019G24KT 15/14 A3037 RMK A01 T01480141  RH  095%=      5-min Rain = 0.01
KBO1 141205Z 00021KT 15/14 A3037 RMK A01 T01480142  RH  096%=      5-min Rain = 0
KBO1 141206Z 00022KT 15/14 A3037 RMK A01 T01470142  RH  097%=      5-min Rain = 0
KBO1 141207Z 00020KT 15/14 A3037 RMK A01 T01470142  RH  097%=      5-min Rain = 0
KBO1 141208Z 00020KT 15/14 A3037 RMK A01 T01470143  RH  097%=      5-min Rain = 0
KBO1 141209Z 00020KT 15/14 A3037 RMK A01 T01470143  RH  098%=      5-min Rain = 0.01
KBO1 141210Z 36017KT 15/14 A3037 RMK A01 T01460143  RH  098%=      5-min Rain = 0
KBO1 141211Z 00017G22KT 15/14 A3037 RMK A01 T01460143  RH  098%=      5-min Rain = 0
KBO1 141212Z 00019KT 15/14 A3037 RMK A01 T01460143  RH  098%=      5-min Rain = 0
KBO1 141213Z 35018KT 15/14 A3037 RMK A01 T01460143  RH  098%=      5-min Rain = 0
KBO1 141214Z 36019KT 15/14 A3037 RMK A01 T01460143  RH  098%=      5-min Rain = 0
KBO1 141215Z 36019KT 15/14 A3037 RMK A01 T01470143  RH  098%=      5-min Rain = 0
KBO1 141216Z 00018KT 15/14 A3037 RMK A01 T01470143  RH  097%=      5-min Rain = 0
KBO1 141217Z 00016KT 15/14 A3037 RMK A01 T01470143  RH  097%=      5-min Rain = 0
KBO1 141218Z 01014KT 15/14 A3037 RMK A01 T01470144  RH  098%=      5-min Rain = 0.01
KBO1 141219Z 01014KT 15/15 A3037 RMK A01 T01470145  RH  098%=      5-min Rain = 0
KBO1 141220Z 02016KT 15/15 A3037 RMK A01 T01480145  RH  098%=      5-min Rain = 0
KBO1 141221Z 02014KT 15/15 A3037 RMK A01 T01490145  RH  098%=      5-min Rain = 0
KBO1 141222Z 02016KT 15/15 A3037 RMK A01 T01490145  RH  097%=      5-min Rain = 0
KBO1 141223Z 03018KT 15/14 A3037 RMK A01 T01500144  RH  096%=      5-min Rain = 0
KBO1 141224Z 03017KT 15/14 A3037 RMK A01 T01510143  RH  095%=      5-min Rain = 0
KBO1 141225Z 03017KT 15/14 A3037 RMK A01 T01510143  RH  095%=      5-min Rain = 0
KBO1 141226Z 03016KT 15/14 A3037 RMK A01 T01520143  RH  094%=      5-min Rain = 0
KBO1 141227Z 03014KT 15/14 A3037 RMK A01 T01520141  RH  093%=      5-min Rain = 0
KBO1 141228Z 04012KT 15/14 A3037 RMK A01 T01530140  RH  092%=      5-min Rain = 0
KBO1 141229Z 03013KT 15/14 A3037 RMK A01 T01530140  RH  091%=      5-min Rain = 0
KBO1 141230Z 03011KT 15/14 A3037 RMK A01 T01530140  RH  092%=      5-min Rain = 0
KBO1 141231Z 03013KT 15/14 A3036 RMK A01 T01530140  RH  092%=      5-min Rain = 0
KBO1 141232Z 04013G18KT 15/14 A3037 RMK A01 T01520140  RH  093%=      5-min Rain = 0
KBO1 141233Z 04015KT 15/14 A3037 RMK A01 T01520141  RH  093%=      5-min Rain = 0
KBO1 141234Z 05015KT 15/14 A3037 RMK A01 T01520141  RH  093%=      5-min Rain = 0
KBO1 141235Z 05015KT 15/14 A3037 RMK A01 T01520141  RH  093%=      5-min Rain = 0
KBO1 141236Z 05012KT 15/14 A3037 RMK A01 T01520141  RH  093%=      5-min Rain = 0
KBO1 141237Z 06013KT 15/14 A3037 RMK A01 T01520141  RH  093%=      5-min Rain = 0
KBO1 141238Z 06012KT 15/14 A3037 RMK A01 T01520141  RH  093%=      5-min Rain = 0
KBO1 141239Z 06012KT 15/14 A3037 RMK A01 T01510141  RH  094%=      5-min Rain = 0
KBO1 141240Z 06012KT 15/14 A3037 RMK A01 T01510142  RH  094%=      5-min Rain = 0
KBO1 141241Z 06011KT 15/14 A3037 RMK A01 T01510141  RH  094%=      5-min Rain = 0
KBO1 141242Z 06011KT 15/14 A3037 RMK A01 T01520141  RH  093%=      5-min Rain = 0
KBO1 141243Z 06013KT 15/14 A3037 RMK A01 T01530140  RH  092%=      5-min Rain = 0
KBO1 141244Z 06012KT 15/14 A3037 RMK A01 T01530138  RH  091%=      5-min Rain = 0
KBO1 141245Z 06013KT 15/14 A3037 RMK A01 T01530138  RH  090%=      5-min Rain = 0
KBO1 141246Z 05013KT 15/14 A3037 RMK A01 T01540137  RH  089%=      5-min Rain = 0
KBO1 141247Z 06012KT 16/14 A3037 RMK A01 T01550136  RH  089%=      5-min Rain = 0
KBO1 141248Z 06013KT 16/14 A3037 RMK A01 T01550136  RH  088%=      5-min Rain = 0
KBO1 141249Z 05012KT 16/14 A3037 RMK A01 T01560136  RH  088%=      5-min Rain = 0
KBO1 141250Z 05012KT 16/14 A3037 RMK A01 T01560136  RH  088%=      5-min Rain = 0
KBO1 141251Z 05012KT 16/14 A3037 RMK A01 T01560136  RH  088%=      5-min Rain = 0
KBO1 141252Z 05011KT 16/14 A3037 RMK A01 T01560137  RH  088%=      5-min Rain = 0
KBO1 141253Z 05011KT 16/14 A3036 RMK A01 T01560137  RH  088%=      5-min Rain = 0
KBO1 141254Z 05012KT 16/14 A3036 RMK A01 T01560135  RH  087%=      5-min Rain = 0
KBO1 141255Z 06010KT 16/14 A3036 RMK A01 T01560136  RH  088%=      5-min Rain = 0
KBO1 141256Z 06011KT 16/14 A3036 RMK A01 T01560137  RH  089%=      5-min Rain = 0.01
KBO1 141257Z 06011KT 16/14 A3036 RMK A01 T01550137  RH  089%=      5-min Rain = 0
KBO1 141258Z 06011KT 16/14 A3036 RMK A01 T01550138  RH  089%=      5-min Rain = 0
KBO1 141259Z 06010KT 16/14 A3036 RMK A01 T01550138  RH  090%=      5-min Rain = 0
KBO1 141300Z 05012KT 16/14 A3035 RMK A01 T01550138  RH  090%=      5-min Rain = 0
KBO1 141301Z 05010KT 16/14 A3035 RMK A01 T01550137  RH  089%=      5-min Rain = 0
KBO1 141302Z 05011KT 16/14 A3035 RMK A01 T01560136  RH  088%=      5-min Rain = 0
KBO1 141303Z 04011KT 16/14 A3036 RMK A01 T01560136  RH  088%=      5-min Rain = 0
KBO1 141304Z 03011KT 16/14 A3036 RMK A01 T01570136  RH  087%=      5-min Rain = 0
KBO1 141305Z 03011KT 16/14 A3036 RMK A01 T01570136  RH  087%=      5-min Rain = 0
KBO1 141306Z 02011KT 16/14 A3036 RMK A01 T01570136  RH  087%=      5-min Rain = 0
KBO1 141307Z 02009KT 16/14 A3036 RMK A01 T01570137  RH  088%=      5-min Rain = 0
KBO1 141308Z 02010KT 16/14 A3036 RMK A01 T01580138  RH  088%=      5-min Rain = 0
KBO1 141309Z 03010KT 16/14 A3037 RMK A01 T01570139  RH  089%=      5-min Rain = 0
KBO1 141310Z 03011KT 16/14 A3037 RMK A01 T01580140  RH  089%=      5-min Rain = 0.01
KBO1 141311Z 04011KT 16/14 A3037 RMK A01 T01580139  RH  089%=      5-min Rain = 0.01
KBO1 141312Z 04012KT 16/14 A3037 RMK A01 T01570139  RH  089%=      5-min Rain = 0.01
KBO1 141313Z 04012KT 16/14 A3036 RMK A01 T01560139  RH  090%=      5-min Rain = 0.01
KBO1 141314Z 05011KT 16/14 A3036 RMK A01 T01560138  RH  089%=      5-min Rain = 0.01
KBO1 141315Z 05010KT 16/14 A3036 RMK A01 T01550139  RH  090%=      5-min Rain = 0
KBO1 141316Z 05008KT 16/14 A3036 RMK A01 T01550139  RH  090%=      5-min Rain = 0
KBO1 141317Z 06007KT 16/14 A3036 RMK A01 T01550139  RH  090%=      5-min Rain = 0
KBO1 141318Z 08008KT 16/14 A3036 RMK A01 T01550138  RH  090%=      5-min Rain = 0
KBO1 141319Z 09011KT 16/14 A3035 RMK A01 T01550138  RH  089%=      5-min Rain = 0
KBO1 141320Z 10014KT 16/14 A3034 RMK A01 T01560137  RH  088%=      5-min Rain = 0.01
KBO1 141321Z 11020KT 16/13 A3033 RMK A01 T01570133  RH  086%=      5-min Rain = 0
KBO1 141322Z 11022KT 16/13 A3031 RMK A01 T01600133  RH  084%=      5-min Rain = 0
KBO1 141323Z 11025KT 16/13 A303 RMK A01 T01610131  RH  083%=      5-min Rain = 0
KBO1 141324Z 11025KT 16/13 A3029 RMK A01 T01620132  RH  082%=      5-min Rain = 0
KBO1 141325Z 12022KT 16/13 A3029 RMK A01 T01620132  RH  082%=      5-min Rain = 0
KBO1 141326Z 12021KT 16/13 A3029 RMK A01 T01610134  RH  084%=      5-min Rain = 0
KBO1 141327Z 12020G25KT 16/13 A3029 RMK A01 T01600133  RH  084%=      5-min Rain = 0
KBO1 141328Z 12018KT 16/13 A3029 RMK A01 T01600133  RH  084%=      5-min Rain = 0
KBO1 141329Z 13015KT 16/13 A3029 RMK A01 T01600133  RH  084%=      5-min Rain = 0
KBO1 141330Z 14019G24KT 16/13 A3029 RMK A01 T01610133  RH  083%=      5-min Rain = 0
KBO1 141331Z 14018KT 16/13 A303 RMK A01 T01610133  RH  084%=      5-min Rain = 0
KBO1 141332Z 14017KT 16/13 A303 RMK A01 T01610134  RH  084%=      5-min Rain = 0
KBO1 141333Z 13020KT 16/13 A303 RMK A01 T01600132  RH  084%=      5-min Rain = 0
KBO1 141334Z 12019KT 16/13 A303 RMK A01 T01620132  RH  082%=      5-min Rain = 0
KBO1 141335Z 12016KT 16/13 A303 RMK A01 T01620134  RH  083%=      5-min Rain = 0
KBO1 141336Z 12015KT 16/13 A303 RMK A01 T01610134  RH  084%=      5-min Rain = 0
KBO1 141337Z 11015KT 16/13 A303 RMK A01 T01600134  RH  085%=      5-min Rain = 0
KBO1 141338Z 11015KT 16/14 A303 RMK A01 T01600135  RH  085%=      5-min Rain = 0
KBO1 141339Z 11015KT 16/14 A303 RMK A01 T01600135  RH  085%=      5-min Rain = 0
KBO1 141340Z 11015KT 16/13 A3029 RMK A01 T01600134  RH  084%=      5-min Rain = 0
KBO1 141341Z 10013KT 16/14 A3029 RMK A01 T01610135  RH  085%=      5-min Rain = 0
KBO1 141342Z 10013KT 16/14 A3029 RMK A01 T01610136  RH  085%=      5-min Rain = 0
KBO1 141343Z 10012KT 16/14 A3029 RMK A01 T01610136  RH  085%=      5-min Rain = 0
KBO1 141344Z 10012KT 16/14 A3029 RMK A01 T01610136  RH  085%=      5-min Rain = 0
KBO1 141345Z 10014KT 16/14 A3029 RMK A01 T01610136  RH  085%=      5-min Rain = 0
KBO1 141346Z 11013KT 16/14 A3029 RMK A01 T01620135  RH  084%=      5-min Rain = 0
KBO1 141347Z 12013KT 16/14 A3029 RMK A01 T01640136  RH  083%=      5-min Rain = 0
KBO1 141348Z 12013KT 17/14 A3029 RMK A01 T01650136  RH  083%=      5-min Rain = 0
KBO1 141349Z 12013KT 17/14 A3029 RMK A01 T01650136  RH  083%=      5-min Rain = 0
KBO1 141350Z 12014KT 17/14 A3029 RMK A01 T01660136  RH  082%=      5-min Rain = 0
KBO1 141351Z 12015KT 17/14 A3029 RMK A01 T01660135  RH  082%=      5-min Rain = 0
KBO1 141352Z 12013KT 17/14 A3029 RMK A01 T01670135  RH  082%=      5-min Rain = 0
KBO1 141353Z 12014KT 17/14 A3029 RMK A01 T01670136  RH  082%=      5-min Rain = 0
KBO1 141354Z 11014KT 17/13 A3029 RMK A01 T01670134  RH  081%=      5-min Rain = 0
KBO1 141355Z 11014KT 17/13 A3029 RMK A01 T01690133  RH  079%=      5-min Rain = 0
KBO1 141356Z 11014KT 17/13 A3029 RMK A01 T01690133  RH  079%=      5-min Rain = 0
KBO1 141357Z 11013KT 17/13 A3029 RMK A01 T01710133  RH  078%=      5-min Rain = 0
KBO1 141358Z 11012KT 17/13 A3029 RMK A01 T01710132  RH  078%=      5-min Rain = 0
KBO1 141359Z 11012KT 17/13 A3029 RMK A01 T01720132  RH  077%=      5-min Rain = 0
KBO1 141400Z 12014KT 17/13 A3029 RMK A01 T01720132  RH  077%=      5-min Rain = 0
KBO1 141401Z 12013KT 17/13 A3029 RMK A01 T01730131  RH  076%=      5-min Rain = 0
KBO1 141402Z 12015KT 18/13 A3029 RMK A01 T01750130  RH  075%=      5-min Rain = 0
KBO1 141403Z 12013KT 18/13 A3029 RMK A01 T01770129  RH  074%=      5-min Rain = 0
KBO1 141404Z 13012KT 18/13 A3029 RMK A01 T01770131  RH  074%=      5-min Rain = 0
KBO1 141405Z 13010KT 18/13 A303 RMK A01 T01770133  RH  075%=      5-min Rain = 0
KBO1 141406Z 13010KT 18/14 A303 RMK A01 T01770136  RH  077%=      5-min Rain = 0
KBO1 141407Z 13009KT 18/14 A303 RMK A01 T01760136  RH  077%=      5-min Rain = 0
KBO1 141408Z 13007KT 18/14 A303 RMK A01 T01750137  RH  079%=      5-min Rain = 0
KBO1 141409Z 11007KT 17/14 A3031 RMK A01 T01740139  RH  080%=      5-min Rain = 0
KBO1 141410Z 10007KT 17/14 A3031 RMK A01 T01730140  RH  081%=      5-min Rain = 0
KBO1 141411Z 10006KT 17/14 A3031 RMK A01 T01740140  RH  080%=      5-min Rain = 0
KBO1 141412Z 10005KT 18/14 A3031 RMK A01 T01760142  RH  080%=      5-min Rain = 0
KBO1 141413Z 10004KT 18/14 A3031 RMK A01 T01780144  RH  080%=      5-min Rain = 0
KBO1 141414Z 11003KT 18/14 A3031 RMK A01 T01790144  RH  080%=      5-min Rain = 0
KBO1 141415Z 12004KT 18/15 A3032 RMK A01 T01810145  RH  079%=      5-min Rain = 0
KBO1 141416Z 12006KT 18/15 A3032 RMK A01 T01820145  RH  079%=      5-min Rain = 0
KBO1 141417Z 12006KT 18/14 A3032 RMK A01 T01830144  RH  078%=      5-min Rain = 0
KBO1 141418Z 10006KT 18/14 A3032 RMK A01 T01820144  RH  078%=      5-min Rain = 0
KBO1 141419Z 11006KT 18/14 A3032 RMK A01 T01820144  RH  078%=      5-min Rain = 0
KBO1 141420Z 13006KT 18/15 A3032 RMK A01 T01820145  RH  079%=      5-min Rain = 0
KBO1 141421Z 13007KT 18/15 A3032 RMK A01 T01820145  RH  079%=      5-min Rain = 0
KBO1 141422Z 12006KT 18/14 A3032 RMK A01 T01820143  RH  078%=      5-min Rain = 0
KBO1 141423Z 10005KT 18/15 A3032 RMK A01 T01820145  RH  079%=      5-min Rain = 0
KBO1 141424Z 10006KT 18/14 A3032 RMK A01 T01830143  RH  077%=      5-min Rain = 0
KBO1 141425Z 10007KT 18/14 A3032 RMK A01 T01820141  RH  077%=      5-min Rain = 0
KBO1 141426Z 10006KT 18/14 A3032 RMK A01 T01830142  RH  077%=      5-min Rain = 0
KBO1 141427Z 11006KT 18/14 A3032 RMK A01 T01830141  RH  076%=      5-min Rain = 0
KBO1 141428Z 11006KT 18/14 A3032 RMK A01 T01830141  RH  076%=      5-min Rain = 0
KBO1 141429Z 09006KT 18/14 A3032 RMK A01 T01830140  RH  076%=      5-min Rain = 0
KBO1 141430Z 09007KT 19/15 A3032 RMK A01 T01850146  RH  078%=      5-min Rain = 0
KBO1 141431Z 09009KT 19/14 A3032 RMK A01 T01880144  RH  076%=      5-min Rain = 0
KBO1 141432Z 10008KT 19/14 A3032 RMK A01 T01880144  RH  075%=      5-min Rain = 0
KBO1 141433Z 10007KT 19/14 A3032 RMK A01 T01890144  RH  075%=      5-min Rain = 0
KBO1 141434Z 11007KT 19/14 A3032 RMK A01 T01880143  RH  075%=      5-min Rain = 0
KBO1 141435Z 10007KT 19/14 A3032 RMK A01 T01880143  RH  075%=      5-min Rain = 0
KBO1 141436Z 09008KT 19/14 A3032 RMK A01 T01890144  RH  075%=      5-min Rain = 0
KBO1 141437Z 08008KT 19/15 A3032 RMK A01 T01900145  RH  075%=      5-min Rain = 0
KBO1 141438Z 08008KT 19/14 A3032 RMK A01 T01910142  RH  073%=      5-min Rain = 0
KBO1 141439Z 09007KT 19/15 A3032 RMK A01 T01910146  RH  075%=      5-min Rain = 0
KBO1 141440Z 09005KT 19/15 A3032 RMK A01 T01920147  RH  075%=      5-min Rain = 0
KBO1 141441Z 10007KT 19/15 A3032 RMK A01 T01930145  RH  074%=      5-min Rain = 0
KBO1 141442Z 10006KT 19/14 A3032 RMK A01 T01930142  RH  073%=      5-min Rain = 0
KBO1 141443Z 10005KT 19/14 A3032 RMK A01 T01910143  RH  073%=      5-min Rain = 0
KBO1 141444Z 10005KT 19/14 A3032 RMK A01 T01910141  RH  073%=      5-min Rain = 0
KBO1 141445Z 10004KT 19/15 A3032 RMK A01 T01920145  RH  074%=      5-min Rain = 0
KBO1 141446Z 10005KT 19/15 A3032 RMK A01 T01940146  RH  074%=      5-min Rain = 0
KBO1 141447Z 11006KT 20/14 A3032 RMK A01 T01960144  RH  071%=      5-min Rain = 0
KBO1 141448Z 11005KT 20/14 A3032 RMK A01 T01970142  RH  070%=      5-min Rain = 0
KBO1 141449Z 11005KT 20/14 A3032 RMK A01 T01990142  RH  070%=      5-min Rain = 0
KBO1 141450Z 10005KT 20/14 A3032 RMK A01 T02000143  RH  070%=      5-min Rain = 0
KBO1 141451Z 08006KT 20/14 A3032 RMK A01 T02010144  RH  070%=      5-min Rain = 0
KBO1 141452Z 08007KT 20/14 A3032 RMK A01 T02020140  RH  068%=      5-min Rain = 0
KBO1 141453Z 08006KT 20/14 A3032 RMK A01 T02010139  RH  067%=      5-min Rain = 0
KBO1 141454Z 08007KT 20/14 A3032 RMK A01 T02010141  RH  068%=      5-min Rain = 0
KBO1 141455Z 10007KT 20/14 A3032 RMK A01 T02010142  RH  069%=      5-min Rain = 0
KBO1 141456Z 09006KT 20/14 A3032 RMK A01 T02010140  RH  068%=      5-min Rain = 0
KBO1 141457Z 10006KT 20/14 A3032 RMK A01 T02010141  RH  068%=      5-min Rain = 0
KBO1 141458Z 11006KT 20/14 A3032 RMK A01 T02010141  RH  068%=      5-min Rain = 0
KBO1 141459Z 11005KT 20/14 A3032 RMK A01 T02010142  RH  069%=      5-min Rain = 0
KBO1 141500Z 10006KT 20/14 A3032 RMK A01 T02010141  RH  068%=      5-min Rain = 0
KBO1 141501Z 10007KT 20/14 A3032 RMK A01 T02020140  RH  068%=      5-min Rain = 0
KBO1 141502Z 09006KT 20/14 A3032 RMK A01 T02020142  RH  068%=      5-min Rain = 0
KBO1 141503Z 09006KT 20/14 A3032 RMK A01 T02030140  RH  067%=      5-min Rain = 0
KBO1 141504Z 10006KT 20/14 A3032 RMK A01 T02040142  RH  068%=      5-min Rain = 0
KBO1 141505Z 09006KT 21/14 A3032 RMK A01 T02050143  RH  068%=      5-min Rain = 0
KBO1 141506Z 08005KT 21/15 A3032 RMK A01 T02070145  RH  068%=      5-min Rain = 0
KBO1 141507Z 07007KT 21/15 A3032 RMK A01 T02090145  RH  067%=      5-min Rain = 0
KBO1 141508Z 07008KT 21/14 A3032 RMK A01 T02090142  RH  066%=      5-min Rain = 0
KBO1 141509Z 07007KT 21/14 A3032 RMK A01 T02090143  RH  066%=      5-min Rain = 0
KBO1 141510Z 07007KT 21/14 A3032 RMK A01 T02110142  RH  065%=      5-min Rain = 0
KBO1 141511Z 08008KT 21/14 A3032 RMK A01 T02130142  RH  064%=      5-min Rain = 0
KBO1 141512Z 08007KT 22/14 A3032 RMK A01 T02160140  RH  062%=      5-min Rain = 0
KBO1 141513Z 08005KT 22/14 A3032 RMK A01 T02190137  RH  060%=      5-min Rain = 0
KBO1 141514Z 09007KT 22/13 A3032 RMK A01 T02190133  RH  058%=      5-min Rain = 0
KBO1 141515Z 09005KT 22/14 A3032 RMK A01 T02190136  RH  059%=      5-min Rain = 0
KBO1 141516Z 09005KT 22/14 A3032 RMK A01 T02190138  RH  060%=      5-min Rain = 0
KBO1 141517Z 09006KT 22/13 A3032 RMK A01 T02190134  RH  059%=      5-min Rain = 0
KBO1 141518Z 08006KT 22/14 A3032 RMK A01 T02190137  RH  060%=      5-min Rain = 0
KBO1 141519Z 09006KT 22/14 A3032 RMK A01 T02200136  RH  059%=      5-min Rain = 0
KBO1 141520Z 10006KT 22/14 A3032 RMK A01 T02210135  RH  058%=      5-min Rain = 0
KBO1 141521Z 11006KT 22/14 A3032 RMK A01 T02220135  RH  058%=      5-min Rain = 0
KBO1 141522Z 09008KT 22/14 A3032 RMK A01 T02240136  RH  057%=      5-min Rain = 0
KBO1 141523Z 10007KT 23/13 A3032 RMK A01 T02260132  RH  055%=      5-min Rain = 0
KBO1 141524Z 10007KT 23/13 A3032 RMK A01 T02280134  RH  055%=      5-min Rain = 0
KBO1 141525Z 10007KT 23/13 A3032 RMK A01 T02300133  RH  054%=      5-min Rain = 0
KBO1 141526Z 10006KT 23/13 A3032 RMK A01 T02310134  RH  054%=      5-min Rain = 0
KBO1 141527Z 08007KT 23/14 A3032 RMK A01 T02310138  RH  056%=      5-min Rain = 0
KBO1 141528Z 09008KT 23/14 A3032 RMK A01 T02330137  RH  055%=      5-min Rain = 0
KBO1 141529Z 08008KT 23/13 A3032 RMK A01 T02340133  RH  053%=      5-min Rain = 0
KBO1 141530Z 09006KT 23/13 A3032 RMK A01 T02340131  RH  053%=      5-min Rain = 0
KBO1 141531Z 10005KT 23/13 A3032 RMK A01 T02340131  RH  052%=      5-min Rain = 0
KBO1 141532Z 08006KT 24/14 A3031 RMK A01 T02350135  RH  053%=      5-min Rain = 0
KBO1 141533Z 07007KT 24/14 A3032 RMK A01 T02360135  RH  053%=      5-min Rain = 0
KBO1 141534Z 09006KT 24/14 A3032 RMK A01 T02370136  RH  053%=      5-min Rain = 0
KBO1 141535Z 08005KT 24/13 A3032 RMK A01 T02380134  RH  052%=      5-min Rain = 0
KBO1 141536Z 05006KT 24/13 A3032 RMK A01 T02400131  RH  050%=      5-min Rain = 0
KBO1 141537Z 05005KT 24/13 A3032 RMK A01 T02400132  RH  051%=      5-min Rain = 0
KBO1 141538Z 04005KT 24/13 A3033 RMK A01 T02410129  RH  050%=      5-min Rain = 0
KBO1 141539Z 03005KT 24/13 A3033 RMK A01 T02420128  RH  049%=      5-min Rain = 0
KBO1 141540Z 01007KT 25/14 A3033 RMK A01 T02450137  RH  051%=      5-min Rain = 0
KBO1 141541Z 00008KT 25/14 A3033 RMK A01 T02480137  RH  050%=      5-min Rain = 0
KBO1 141542Z 02009KT 25/14 A3033 RMK A01 T02490136  RH  050%=      5-min Rain = 0
KBO1 141543Z 01010KT 25/14 A3033 RMK A01 T02470141  RH  052%=      5-min Rain = 0
KBO1 141544Z 01009KT 24/14 A3033 RMK A01 T02430144  RH  054%=      5-min Rain = 0
KBO1 141545Z 01008KT 24/14 A3033 RMK A01 T02380142  RH  055%=      5-min Rain = 0
KBO1 141546Z 00006KT 24/14 A3033 RMK A01 T02350142  RH  056%=      5-min Rain = 0
KBO1 141547Z 01008KT 23/14 A3033 RMK A01 T02330143  RH  057%=      5-min Rain = 0
KBO1 141548Z 36008KT 23/15 A3034 RMK A01 T02330145  RH  058%=      5-min Rain = 0
KBO1 141549Z 01011KT 23/14 A3034 RMK A01 T02340141  RH  056%=      5-min Rain = 0
KBO1 141550Z 36011KT 23/14 A3034 RMK A01 T02340142  RH  056%=      5-min Rain = 0
KBO1 141551Z 36012KT 23/14 A3034 RMK A01 T02340143  RH  056%=      5-min Rain = 0
KBO1 141552Z 00010KT 24/14 A3034 RMK A01 T02370141  RH  055%=      5-min Rain = 0
KBO1 141553Z 35010KT 24/14 A3034 RMK A01 T02390141  RH  054%=      5-min Rain = 0
KBO1 141554Z 35009KT 24/14 A3034 RMK A01 T02400142  RH  054%=      5-min Rain = 0
KBO1 141555Z 01010KT 24/15 A3034 RMK A01 T02420146  RH  055%=      5-min Rain = 0
KBO1 141556Z 00011KT 24/15 A3034 RMK A01 T02430147  RH  055%=      5-min Rain = 0
KBO1 141557Z 01011KT 24/14 A3034 RMK A01 T02430144  RH  054%=      5-min Rain = 0
KBO1 141558Z 35011KT 24/14 A3034 RMK A01 T02410142  RH  054%=      5-min Rain = 0
KBO1 141559Z 36010KT 24/14 A3034 RMK A01 T02390141  RH  054%=      5-min Rain = 0
KBO1 141600Z 35012KT 24/15 A3034 RMK A01 T02390147  RH  056%=      5-min Rain = 0
KBO1 141601Z 35011KT 24/15 A3034 RMK A01 T02380148  RH  057%=      5-min Rain = 0
KBO1 141602Z 34010KT 24/15 A3034 RMK A01 T02350147  RH  058%=      5-min Rain = 0
KBO1 141603Z 34010KT 23/15 A3035 RMK A01 T02340148  RH  058%=      5-min Rain = 0
KBO1 141604Z 00012KT 23/15 A3035 RMK A01 T02330148  RH  059%=      5-min Rain = 0
KBO1 141605Z 36011KT 23/15 A3035 RMK A01 T02330149  RH  059%=      5-min Rain = 0
KBO1 141606Z 35012KT 23/14 A3035 RMK A01 T02330144  RH  057%=      5-min Rain = 0
KBO1 141607Z 35012KT 23/14 A3035 RMK A01 T02310141  RH  057%=      5-min Rain = 0
KBO1 141608Z 35014KT 23/15 A3035 RMK A01 T02300150  RH  061%=      5-min Rain = 0
KBO1 141609Z 00012KT 23/16 A3035 RMK A01 T02280159  RH  065%=      5-min Rain = 0
KBO1 141610Z 00013KT 23/16 A3035 RMK A01 T02290155  RH  063%=      5-min Rain = 0
KBO1 141611Z 00012KT 23/16 A3035 RMK A01 T02280155  RH  063%=      5-min Rain = 0
KBO1 141612Z 35011KT 23/16 A3035 RMK A01 T02260156  RH  065%=      5-min Rain = 0
KBO1 141613Z 36014KT 23/16 A3035 RMK A01 T02250156  RH  065%=      5-min Rain = 0
KBO1 141614Z 00013KT 22/16 A3035 RMK A01 T02240156  RH  066%=      5-min Rain = 0
KBO1 141615Z 36013KT 22/16 A3035 RMK A01 T02220155  RH  066%=      5-min Rain = 0
KBO1 141616Z 36013G18KT 22/16 A3035 RMK A01 T02210156  RH  067%=      5-min Rain = 0
KBO1 141617Z 36013KT 22/16 A3035 RMK A01 T02210155  RH  066%=      5-min Rain = 0
KBO1 141618Z 36013KT 22/15 A3035 RMK A01 T02210152  RH  065%=      5-min Rain = 0
KBO1 141619Z 35013G18KT 22/15 A3035 RMK A01 T02200153  RH  066%=      5-min Rain = 0
KBO1 141620Z 35015KT 22/16 A3035 RMK A01 T02210156  RH  067%=      5-min Rain = 0
KBO1 141621Z 35015KT 22/16 A3035 RMK A01 T02200156  RH  067%=      5-min Rain = 0
KBO1 141622Z 35012KT 22/16 A3035 RMK A01 T02200156  RH  067%=      5-min Rain = 0
KBO1 141623Z 35013KT 22/16 A3035 RMK A01 T02200155  RH  067%=      5-min Rain = 0
KBO1 141624Z 00015KT 22/16 A3035 RMK A01 T02200155  RH  067%=      5-min Rain = 0
KBO1 141625Z 00016KT 22/16 A3035 RMK A01 T02190156  RH  067%=      5-min Rain = 0
KBO1 141626Z 00016KT 22/16 A3035 RMK A01 T02170156  RH  068%=      5-min Rain = 0
KBO1 141627Z 36014KT 22/16 A3035 RMK A01 T02180157  RH  068%=      5-min Rain = 0
KBO1 141628Z 36015KT 22/16 A3035 RMK A01 T02210155  RH  066%=      5-min Rain = 0
KBO1 141629Z 36017KT 22/15 A3035 RMK A01 T02210154  RH  066%=      5-min Rain = 0
KBO1 141630Z 35018KT 22/16 A3036 RMK A01 T02190157  RH  068%=      5-min Rain = 0
KBO1 141631Z 00016KT 22/16 A3036 RMK A01 T02170155  RH  068%=      5-min Rain = 0
KBO1 141632Z 00016KT 22/15 A3036 RMK A01 T02150153  RH  068%=      5-min Rain = 0
KBO1 141633Z 36017KT 21/15 A3035 RMK A01 T02140154  RH  069%=      5-min Rain = 0
KBO1 141634Z 36018KT 21/16 A3035 RMK A01 T02130155  RH  069%=      5-min Rain = 0
KBO1 141635Z 35016KT 21/15 A3036 RMK A01 T02110154  RH  070%=      5-min Rain = 0
KBO1 141636Z 36014KT 21/16 A3036 RMK A01 T02100155  RH  071%=      5-min Rain = 0
KBO1 141637Z 35016KT 21/15 A3036 RMK A01 T02100154  RH  070%=      5-min Rain = 0
KBO1 141638Z 36015KT 21/15 A3036 RMK A01 T02090153  RH  070%=      5-min Rain = 0
KBO1 141639Z 36015KT 21/15 A3036 RMK A01 T02090152  RH  070%=      5-min Rain = 0
KBO1 141640Z 35014KT 21/15 A3036 RMK A01 T02090153  RH  070%=      5-min Rain = 0
KBO1 141641Z 36015KT 21/15 A3036 RMK A01 T02090152  RH  070%=      5-min Rain = 0
KBO1 141642Z 00014KT 21/15 A3035 RMK A01 T02100154  RH  070%=      5-min Rain = 0
KBO1 141643Z 00014KT 21/15 A3036 RMK A01 T02110154  RH  070%=      5-min Rain = 0
KBO1 141644Z 36015KT 21/16 A3035 RMK A01 T02130155  RH  070%=      5-min Rain = 0
KBO1 141645Z 35016KT 21/15 A3036 RMK A01 T02140152  RH  068%=      5-min Rain = 0
KBO1 141646Z 35015KT 21/15 A3036 RMK A01 T02140152  RH  067%=      5-min Rain = 0
KBO1 141647Z 34016KT 21/15 A3036 RMK A01 T02140153  RH  068%=      5-min Rain = 0
KBO1 141648Z 35016KT 21/15 A3036 RMK A01 T02140152  RH  068%=      5-min Rain = 0
KBO1 141649Z 35017KT 21/15 A3036 RMK A01 T02140152  RH  068%=      5-min Rain = 0
KBO1 141650Z 35015KT 21/15 A3036 RMK A01 T02140151  RH  067%=      5-min Rain = 0
KBO1 141651Z 36017KT 21/15 A3036 RMK A01 T02130149  RH  067%=      5-min Rain = 0
KBO1 141652Z 36014KT 21/15 A3036 RMK A01 T02120148  RH  067%=      5-min Rain = 0
KBO1 141653Z 36015KT 21/15 A3036 RMK A01 T02110146  RH  066%=      5-min Rain = 0
KBO1 141654Z 36015KT 21/15 A3036 RMK A01 T02110145  RH  066%=      5-min Rain = 0
KBO1 141655Z 35012KT 21/15 A3036 RMK A01 T02110147  RH  067%=      5-min Rain = 0
KBO1 141656Z 35016KT 21/15 A3036 RMK A01 T02120146  RH  066%=      5-min Rain = 0
KBO1 141657Z 35014KT 21/15 A3036 RMK A01 T02120146  RH  066%=      5-min Rain = 0
KBO1 141658Z 35015KT 21/15 A3036 RMK A01 T02100149  RH  068%=      5-min Rain = 0
KBO1 141659Z 35014KT 21/15 A3036 RMK A01 T02070152  RH  071%=      5-min Rain = 0
KBO1 141700Z 36013KT 20/16 A3036 RMK A01 T02030156  RH  074%=      5-min Rain = 0.02
KBO1 141701Z 36015KT 20/16 A3036 RMK A01 T01990156  RH  076%=      5-min Rain = 0
KBO1 141702Z 35014KT 20/15 A3036 RMK A01 T01960153  RH  076%=      5-min Rain = 0.01
KBO1 141703Z 35012KT 19/16 A3036 RMK A01 T01940155  RH  078%=      5-min Rain = 0
KBO1 141704Z 35013KT 19/16 A3036 RMK A01 T01930157  RH  080%=      5-min Rain = 0.01
KBO1 141705Z 35012KT 19/16 A3036 RMK A01 T01920156  RH  080%=      5-min Rain = 0
KBO1 141706Z 35014KT 19/16 A3036 RMK A01 T01930156  RH  079%=      5-min Rain = 0
KBO1 141707Z 35014KT 20/16 A3036 RMK A01 T01950158  RH  079%=      5-min Rain = 0
KBO1 141708Z 35012KT 20/16 A3036 RMK A01 T01990164  RH  080%=      5-min Rain = 0
KBO1 141709Z 36012KT 20/17 A3036 RMK A01 T02020166  RH  079%=      5-min Rain = 0
KBO1 141710Z 01014KT 21/17 A3036 RMK A01 T02060166  RH  078%=      5-min Rain = 0
KBO1 141711Z 00014KT 21/16 A3036 RMK A01 T02080162  RH  075%=      5-min Rain = 0
KBO1 141712Z 36013KT 21/16 A3036 RMK A01 T02080159  RH  074%=      5-min Rain = 0
KBO1 141713Z 00012KT 21/16 A3036 RMK A01 T02070159  RH  074%=      5-min Rain = 0
KBO1 141714Z 00014KT 21/16 A3036 RMK A01 T02060156  RH  073%=      5-min Rain = 0
KBO1 141715Z 36015KT 21/16 A3036 RMK A01 T02060156  RH  073%=      5-min Rain = 0
KBO1 141716Z 00014KT 21/16 A3036 RMK A01 T02060155  RH  072%=      5-min Rain = 0
KBO1 141717Z 00013KT 21/16 A3036 RMK A01 T02060158  RH  074%=      5-min Rain = 0
KBO1 141718Z 00014KT 21/16 A3036 RMK A01 T02060158  RH  074%=      5-min Rain = 0
KBO1 141719Z 36013KT 21/16 A3036 RMK A01 T02050160  RH  075%=      5-min Rain = 0
KBO1 141720Z 35013KT 21/16 A3036 RMK A01 T02050162  RH  076%=      5-min Rain = 0
KBO1 141721Z 00015KT 20/16 A3036 RMK A01 T02040162  RH  077%=      5-min Rain = 0
KBO1 141722Z 00014KT 20/16 A3036 RMK A01 T02030162  RH  077%=      5-min Rain = 0
KBO1 141723Z 36013KT 20/16 A3036 RMK A01 T02030162  RH  077%=      5-min Rain = 0
KBO1 141724Z 00012KT 20/16 A3036 RMK A01 T02030164  RH  078%=      5-min Rain = 0
KBO1 141725Z 00011KT 21/17 A3036 RMK A01 T02060170  RH  080%=      5-min Rain = 0
KBO1 141726Z 36009KT 21/18 A3036 RMK A01 T02100178  RH  082%=      5-min Rain = 0
KBO1 141727Z 00013KT 21/18 A3036 RMK A01 T02140177  RH  080%=      5-min Rain = 0
KBO1 141728Z 00013KT 22/17 A3036 RMK A01 T02160173  RH  076%=      5-min Rain = 0
KBO1 141729Z 00012KT 22/18 A3036 RMK A01 T02190175  RH  076%=      5-min Rain = 0
KBO1 141730Z 36012KT 22/17 A3036 RMK A01 T02210173  RH  074%=      5-min Rain = 0
KBO1 141731Z 36013KT 22/17 A3036 RMK A01 T02210172  RH  074%=      5-min Rain = 0
KBO1 141732Z 36010KT 22/18 A3036 RMK A01 T02230176  RH  075%=      5-min Rain = 0
KBO1 141733Z 36012KT 23/17 A3036 RMK A01 T02250169  RH  071%=      5-min Rain = 0
KBO1 141734Z 00012KT 23/17 A3036 RMK A01 T02260168  RH  070%=      5-min Rain = 0
KBO1 141735Z 01013G20KT 23/17 A3036 RMK A01 T02260169  RH  070%=      5-min Rain = 0
KBO1 141736Z 01014KT 23/17 A3036 RMK A01 T02280167  RH  068%=      5-min Rain = 0
KBO1 141737Z 02015KT 23/17 A3036 RMK A01 T02290172  RH  070%=      5-min Rain = 0
KBO1 141738Z 01017KT 23/17 A3036 RMK A01 T02300166  RH  067%=      5-min Rain = 0
KBO1 141739Z 02015KT 23/16 A3036 RMK A01 T02290160  RH  065%=      5-min Rain = 0
KBO1 141740Z 02013KT 23/16 A3036 RMK A01 T02280164  RH  067%=      5-min Rain = 0
KBO1 141741Z 02013KT 23/16 A3035 RMK A01 T02300161  RH  065%=      5-min Rain = 0
KBO1 141742Z 02013KT 23/16 A3035 RMK A01 T02300157  RH  063%=      5-min Rain = 0
KBO1 141743Z 01012KT 23/15 A3035 RMK A01 T02290153  RH  062%=      5-min Rain = 0
KBO1 141744Z 01011KT 23/15 A3035 RMK A01 T02280154  RH  063%=      5-min Rain = 0
KBO1 141745Z 02010KT 23/16 A3035 RMK A01 T02280155  RH  063%=      5-min Rain = 0
KBO1 141746Z 03011KT 23/15 A3035 RMK A01 T02280153  RH  063%=      5-min Rain = 0
KBO1 141747Z 02013KT 23/15 A3035 RMK A01 T02260153  RH  063%=      5-min Rain = 0
KBO1 141748Z 02012KT 23/15 A3035 RMK A01 T02250152  RH  063%=      5-min Rain = 0
KBO1 141749Z 01011KT 23/16 A3035 RMK A01 T02250156  RH  065%=      5-min Rain = 0
KBO1 141750Z 01009KT 23/16 A3035 RMK A01 T02260155  RH  064%=      5-min Rain = 0
KBO1 141751Z 01010KT 23/16 A3035 RMK A01 T02290157  RH  064%=      5-min Rain = 0
KBO1 141752Z 02013KT 23/16 A3035 RMK A01 T02330162  RH  064%=      5-min Rain = 0
KBO1 141753Z 01013KT 24/16 A3035 RMK A01 T02350159  RH  062%=      5-min Rain = 0
KBO1 141754Z 01012KT 24/16 A3035 RMK A01 T02350158  RH  062%=      5-min Rain = 0
KBO1 141755Z 01013KT 23/15 A3035 RMK A01 T02340154  RH  061%=      5-min Rain = 0
KBO1 141756Z 02013KT 23/16 A3035 RMK A01 T02340158  RH  062%=      5-min Rain = 0
KBO1 141757Z 03011KT 24/15 A3035 RMK A01 T02370151  RH  059%=      5-min Rain = 0
KBO1 141758Z 02008KT 24/15 A3035 RMK A01 T02370147  RH  057%=      5-min Rain = 0
KBO1 141759Z 02012KT 24/16 A3035 RMK A01 T02380156  RH  060%=      5-min Rain = 0
KBO1 141800Z 01012KT 24/15 A3035 RMK A01 T02390150  RH  057%=      5-min Rain = 0
KBO1 141801Z 02010KT 24/15 A3035 RMK A01 T02380149  RH  057%=      5-min Rain = 0
KBO1 141802Z 02011KT 24/15 A3034 RMK A01 T02360148  RH  058%=      5-min Rain = 0
KBO1 141803Z 03011KT 24/15 A3034 RMK A01 T02370147  RH  057%=      5-min Rain = 0
KBO1 141804Z 04012KT 24/15 A3034 RMK A01 T02380146  RH  056%=      5-min Rain = 0
KBO1 141805Z 02010KT 24/15 A3034 RMK A01 T02380148  RH  057%=      5-min Rain = 0
KBO1 141806Z 02010KT 24/15 A3034 RMK A01 T02380149  RH  058%=      5-min Rain = 0
KBO1 141807Z 02013KT 24/15 A3034 RMK A01 T02380147  RH  057%=      5-min Rain = 0
KBO1 141808Z 03011KT 24/15 A3034 RMK A01 T02380147  RH  057%=      5-min Rain = 0
KBO1 141809Z 03009KT 24/16 A3034 RMK A01 T02390156  RH  060%=      5-min Rain = 0
KBO1 141810Z 01009KT 24/15 A3034 RMK A01 T02420150  RH  056%=      5-min Rain = 0
KBO1 141811Z 02007KT 24/15 A3034 RMK A01 T02410150  RH  057%=      5-min Rain = 0
KBO1 141812Z 04011KT 24/15 A3034 RMK A01 T02410148  RH  056%=      5-min Rain = 0
KBO1 141813Z 04009KT 24/15 A3034 RMK A01 T02390145  RH  055%=      5-min Rain = 0
KBO1 141814Z 04010KT 24/15 A3034 RMK A01 T02400148  RH  056%=      5-min Rain = 0
KBO1 141815Z 04011KT 24/15 A3034 RMK A01 T02410147  RH  055%=      5-min Rain = 0
KBO1 141816Z 04009KT 24/15 A3034 RMK A01 T02410147  RH  056%=      5-min Rain = 0
KBO1 141817Z 02009KT 24/15 A3034 RMK A01 T02400150  RH  057%=      5-min Rain = 0
KBO1 141818Z 01009KT 24/15 A3034 RMK A01 T02420149  RH  056%=      5-min Rain = 0
KBO1 141819Z 01007KT 24/15 A3033 RMK A01 T02410147  RH  055%=      5-min Rain = 0
KBO1 141820Z 35006KT 24/15 A3033 RMK A01 T02400148  RH  056%=      5-min Rain = 0
KBO1 141821Z 00007KT 24/15 A3033 RMK A01 T02410146  RH  055%=      5-min Rain = 0
KBO1 141822Z 03009KT 24/15 A3033 RMK A01 T02430154  RH  058%=      5-min Rain = 0
KBO1 141823Z 02008KT 25/14 A3033 RMK A01 T02460143  RH  053%=      5-min Rain = 0
KBO1 141824Z 03007KT 24/14 A3033 RMK A01 T02440144  RH  054%=      5-min Rain = 0
KBO1 141825Z 02004KT 24/15 A3033 RMK A01 T02420145  RH  055%=      5-min Rain = 0
KBO1 141826Z 02007KT 24/15 A3033 RMK A01 T02430149  RH  056%=      5-min Rain = 0
KBO1 141827Z 03008KT 25/15 A3033 RMK A01 T02450145  RH  053%=      5-min Rain = 0
KBO1 141828Z 03006KT 25/14 A3033 RMK A01 T02460143  RH  053%=      5-min Rain = 0
KBO1 141829Z 03006KT 24/14 A3033 RMK A01 T02440143  RH  053%=      5-min Rain = 0
KBO1 141830Z 02006KT 24/14 A3033 RMK A01 T02430141  RH  053%=      5-min Rain = 0
KBO1 141831Z 01004KT 24/14 A3032 RMK A01 T02430141  RH  053%=      5-min Rain = 0
KBO1 141832Z 00002KT 24/14 A3032 RMK A01 T02420144  RH  054%=      5-min Rain = 0
KBO1 141833Z 02004KT 25/15 A3032 RMK A01 T02450147  RH  054%=      5-min Rain = 0
KBO1 141834Z 04004KT 25/14 A3032 RMK A01 T02470138  RH  051%=      5-min Rain = 0
KBO1 141835Z 02004KT 25/14 A3032 RMK A01 T02470140  RH  051%=      5-min Rain = 0
KBO1 141836Z 03004KT 25/14 A3032 RMK A01 T02480140  RH  051%=      5-min Rain = 0
KBO1 141837Z 03005KT 25/14 A3032 RMK A01 T02490137  RH  050%=      5-min Rain = 0
KBO1 141838Z 05005KT 25/14 A3032 RMK A01 T02500136  RH  049%=      5-min Rain = 0
KBO1 141839Z 05006KT 25/13 A3032 RMK A01 T02520133  RH  048%=      5-min Rain = 0
KBO1 141840Z 05005KT 25/13 A3032 RMK A01 T02540134  RH  047%=      5-min Rain = 0
KBO1 141841Z 04003KT 26/14 A3032 RMK A01 T02550137  RH  048%=      5-min Rain = 0
KBO1 141842Z 04004KT 26/14 A3031 RMK A01 T02560139  RH  048%=      5-min Rain = 0
KBO1 141843Z 02002KT 26/14 A3031 RMK A01 T02560136  RH  048%=      5-min Rain = 0
KBO1 141844Z 08005KT 26/14 A3031 RMK A01 T02560135  RH  047%=      5-min Rain = 0
KBO1 141845Z 09003KT 26/13 A3031 RMK A01 T02560127  RH  045%=      5-min Rain = 0
KBO1 141846Z 04003KT 26/13 A3031 RMK A01 T02560131  RH  046%=      5-min Rain = 0
KBO1 141847Z 03000KT 26/13 A3031 RMK A01 T02560127  RH  045%=      5-min Rain = 0
KBO1 141848Z 02001KT 26/13 A3031 RMK A01 T02570133  RH  046%=      5-min Rain = 0
KBO1 141849Z 05001KT 26/13 A3031 RMK A01 T02590129  RH  044%=      5-min Rain = 0
KBO1 141850Z 13000KT 26/13 A3031 RMK A01 T02600129  RH  044%=      5-min Rain = 0
KBO1 141851Z 12001KT 26/13 A3031 RMK A01 T02610131  RH  044%=      5-min Rain = 0
KBO1 141852Z 10002KT 26/13 A3031 RMK A01 T02610132  RH  045%=      5-min Rain = 0
KBO1 141853Z 13005KT 26/13 A3031 RMK A01 T02630126  RH  043%=      5-min Rain = 0
KBO1 141854Z 13004KT 27/12 A3031 RMK A01 T02650124  RH  042%=      5-min Rain = 0
KBO1 141855Z 11002KT 27/12 A3031 RMK A01 T02650123  RH  041%=      5-min Rain = 0
KBO1 141856Z 09001KT 27/13 A3031 RMK A01 T02650125  RH  042%=      5-min Rain = 0
KBO1 141857Z 00000KT 27/13 A3031 RMK A01 T02650130  RH  043%=      5-min Rain = 0
KBO1 141858Z 13002KT 27/13 A3031 RMK A01 T02670133  RH  044%=      5-min Rain = 0
KBO1 141859Z 13004KT 27/13 A3031 RMK A01 T02700127  RH  041%=      5-min Rain = 0
KBO1 141900Z 14004KT 27/12 A3031 RMK A01 T02710118  RH  039%=      5-min Rain = 0
KBO1 141901Z 15005KT 27/12 A3031 RMK A01 T02720124  RH  040%=      5-min Rain = 0
KBO1 141902Z 15004KT 27/12 A3031 RMK A01 T02730117  RH  038%=      5-min Rain = 0
KBO1 141903Z 15004KT 27/12 A303 RMK A01 T02720115  RH  038%=      5-min Rain = 0
KBO1 141904Z 14004KT 27/11 A303 RMK A01 T02720112  RH  037%=      5-min Rain = 0
KBO1 141905Z 15001KT 27/12 A303 RMK A01 T02720119  RH  039%=      5-min Rain = 0
KBO1 141906Z 08001KT 27/12 A303 RMK A01 T02730120  RH  039%=      5-min Rain = 0
KBO1 141907Z 17002KT 28/13 A303 RMK A01 T02750126  RH  040%=      5-min Rain = 0
KBO1 141908Z 13001KT 28/12 A303 RMK A01 T02780124  RH  038%=      5-min Rain = 0
KBO1 141909Z 16001KT 28/13 A303 RMK A01 T02800129  RH  039%=      5-min Rain = 0
KBO1 141910Z 14002KT 28/12 A303 RMK A01 T02820124  RH  038%=      5-min Rain = 0
KBO1 141911Z 11002KT 28/12 A303 RMK A01 T02830121  RH  037%=      5-min Rain = 0
KBO1 141912Z 10001KT 28/12 A303 RMK A01 T02830123  RH  037%=      5-min Rain = 0
KBO1 141913Z 24002KT 28/12 A303 RMK A01 T02830124  RH  037%=      5-min Rain = 0
KBO1 141914Z 20002KT 28/13 A303 RMK A01 T02830125  RH  038%=      5-min Rain = 0
KBO1 141915Z 09003KT 28/12 A303 RMK A01 T02820123  RH  037%=      5-min Rain = 0
KBO1 141916Z 09003KT 28/12 A303 RMK A01 T02810120  RH  037%=      5-min Rain = 0
KBO1 141917Z 14003KT 28/12 A303 RMK A01 T02810119  RH  037%=      5-min Rain = 0
KBO1 141918Z 14003KT 28/12 A303 RMK A01 T02800118  RH  037%=      5-min Rain = 0
KBO1 141919Z 12004KT 28/12 A303 RMK A01 T02790121  RH  038%=      5-min Rain = 0
KBO1 141920Z 14002KT 28/12 A303 RMK A01 T02790118  RH  037%=      5-min Rain = 0
KBO1 141921Z 12003KT 28/12 A303 RMK A01 T02790116  RH  036%=      5-min Rain = 0
KBO1 141922Z 09002KT 28/11 A303 RMK A01 T02790112  RH  035%=      5-min Rain = 0
KBO1 141923Z 13001KT 28/12 A303 RMK A01 T02790121  RH  038%=      5-min Rain = 0
KBO1 141924Z 19003KT 28/12 A303 RMK A01 T02810120  RH  037%=      5-min Rain = 0
KBO1 141925Z 17001KT 28/11 A303 RMK A01 T02820114  RH  035%=      5-min Rain = 0
KBO1 141926Z 11000KT 28/12 A3029 RMK A01 T02810119  RH  037%=      5-min Rain = 0
KBO1 141927Z 07001KT 28/11 A3029 RMK A01 T02820114  RH  035%=      5-min Rain = 0
KBO1 141928Z 02001KT 28/11 A3029 RMK A01 T02820112  RH  035%=      5-min Rain = 0
KBO1 141929Z 03003KT 28/12 A3029 RMK A01 T02820122  RH  037%=      5-min Rain = 0
KBO1 141930Z 34003KT 28/12 A3029 RMK A01 T02820115  RH  035%=      5-min Rain = 0
KBO1 141931Z 33003KT 28/12 A3029 RMK A01 T02810117  RH  036%=      5-min Rain = 0
KBO1 141932Z 34003KT 28/12 A3029 RMK A01 T02810121  RH  037%=      5-min Rain = 0
KBO1 141933Z 36002KT 28/12 A3029 RMK A01 T02820118  RH  036%=      5-min Rain = 0
KBO1 141934Z 31002KT 28/12 A3029 RMK A01 T02830117  RH  036%=      5-min Rain = 0
KBO1 141935Z 26005KT 28/13 A3029 RMK A01 T02830125  RH  037%=      5-min Rain = 0
KBO1 141936Z 28004KT 29/12 A3029 RMK A01 T02850117  RH  035%=      5-min Rain = 0
KBO1 141937Z 29004KT 28/12 A3029 RMK A01 T02830116  RH  035%=      5-min Rain = 0
KBO1 141938Z 29004KT 28/12 A3029 RMK A01 T02810115  RH  036%=      5-min Rain = 0
KBO1 141939Z 31002KT 28/12 A3029 RMK A01 T02790120  RH  037%=      5-min Rain = 0
KBO1 141940Z 29003KT 28/12 A3029 RMK A01 T02810121  RH  037%=      5-min Rain = 0
KBO1 141941Z 28004KT 28/12 A3029 RMK A01 T02830116  RH  036%=      5-min Rain = 0
KBO1 141942Z 29003KT 28/11 A3029 RMK A01 T02820113  RH  035%=      5-min Rain = 0
KBO1 141943Z 34002KT 28/11 A3029 RMK A01 T02800112  RH  035%=      5-min Rain = 0
KBO1 141944Z 36002KT 28/12 A3029 RMK A01 T02790118  RH  037%=      5-min Rain = 0
KBO1 141945Z 32001KT 28/11 A3029 RMK A01 T02800114  RH  035%=      5-min Rain = 0
KBO1 141946Z 35001KT 28/11 A3029 RMK A01 T02810110  RH  034%=      5-min Rain = 0
KBO1 141947Z 32001KT 28/11 A3029 RMK A01 T02800112  RH  035%=      5-min Rain = 0
KBO1 141948Z 30002KT 28/11 A3028 RMK A01 T02810113  RH  035%=      5-min Rain = 0
KBO1 141949Z 29002KT 28/11 A3028 RMK A01 T02810113  RH  035%=      5-min Rain = 0
KBO1 141950Z 28001KT 28/11 A3028 RMK A01 T02820114  RH  035%=      5-min Rain = 0
KBO1 141951Z 21001KT 28/12 A3028 RMK A01 T02840116  RH  035%=      5-min Rain = 0
KBO1 141952Z 24006KT 29/12 A3028 RMK A01 T02860117  RH  035%=      5-min Rain = 0
KBO1 141953Z 25005KT 29/11 A3028 RMK A01 T02870114  RH  034%=      5-min Rain = 0
KBO1 141954Z 24006KT 29/11 A3028 RMK A01 T02870114  RH  034%=      5-min Rain = 0
KBO1 141955Z 23006KT 29/11 A3028 RMK A01 T02870114  RH  034%=      5-min Rain = 0
KBO1 141956Z 23006KT 29/11 A3028 RMK A01 T02870112  RH  034%=      5-min Rain = 0.01
KBO1 141957Z 22006KT 29/12 A3028 RMK A01 T02870115  RH  034%=      5-min Rain = 0
KBO1 141958Z 21005KT 29/11 A3027 RMK A01 T02870111  RH  034%=      5-min Rain = 0
KBO1 141959Z 21003KT 29/12 A3027 RMK A01 T02880115  RH  034%=      5-min Rain = 0
KBO1 142000Z 25005KT 29/12 A3027 RMK A01 T02890118  RH  035%=      5-min Rain = 0
KBO1 142001Z 25003KT 29/11 A3027 RMK A01 T02900114  RH  034%=      5-min Rain = 0
KBO1 142002Z 29005KT 29/12 A3027 RMK A01 T02890118  RH  035%=      5-min Rain = 0
KBO1 142003Z 30005KT 29/12 A3027 RMK A01 T02900115  RH  034%=      5-min Rain = 0
KBO1 142004Z 29006KT 29/12 A3027 RMK A01 T02900118  RH  034%=      5-min Rain = 0
KBO1 142005Z 28006KT 29/12 A3027 RMK A01 T02910119  RH  035%=      5-min Rain = 0
KBO1 142006Z 27003KT 29/12 A3027 RMK A01 T02920115  RH  033%=      5-min Rain = 0
KBO1 142007Z 25002KT 29/11 A3027 RMK A01 T02900114  RH  034%=      5-min Rain = 0
KBO1 142008Z 00002KT 29/12 A3027 RMK A01 T02880116  RH  034%=      5-min Rain = 0
KBO1 142009Z 00002KT 29/12 A3027 RMK A01 T02880120  RH  035%=      5-min Rain = 0
KBO1 142010Z 27002KT 29/12 A3027 RMK A01 T02890116  RH  034%=      5-min Rain = 0
KBO1 142011Z 26003KT 29/12 A3027 RMK A01 T02900120  RH  035%=      5-min Rain = 0
KBO1 142012Z 26004KT 29/12 A3027 RMK A01 T02930123  RH  035%=      5-min Rain = 0
KBO1 142013Z 29002KT 30/12 A3027 RMK A01 T02950118  RH  034%=      5-min Rain = 0
KBO1 142014Z 31004KT 30/12 A3027 RMK A01 T02950124  RH  035%=      5-min Rain = 0
KBO1 142015Z 28007KT 30/12 A3027 RMK A01 T02950120  RH  034%=      5-min Rain = 0
KBO1 142016Z 28005KT 29/12 A3027 RMK A01 T02940119  RH  034%=      5-min Rain = 0
KBO1 142017Z 25003KT 29/12 A3027 RMK A01 T02940119  RH  034%=      5-min Rain = 0
KBO1 142018Z 25003KT 29/12 A3027 RMK A01 T02930119  RH  034%=      5-min Rain = 0
KBO1 142019Z 25003KT 29/12 A3027 RMK A01 T02930116  RH  033%=      5-min Rain = 0
KBO1 142020Z 29006KT 29/12 A3026 RMK A01 T02920120  RH  035%=      5-min Rain = 0
KBO1 142021Z 27006KT 29/12 A3026 RMK A01 T02940119  RH  034%=      5-min Rain = 0
KBO1 142022Z 29006KT 30/12 A3026 RMK A01 T02950118  RH  034%=      5-min Rain = 0
KBO1 142023Z 29005KT 29/12 A3026 RMK A01 T02940117  RH  034%=      5-min Rain = 0
KBO1 142024Z 28005KT 29/12 A3026 RMK A01 T02920118  RH  034%=      5-min Rain = 0
KBO1 142025Z 27005KT 29/12 A3026 RMK A01 T02930121  RH  035%=      5-min Rain = 0
KBO1 142026Z 26006KT 30/13 A3026 RMK A01 T02970126  RH  035%=      5-min Rain = 0
KBO1 142027Z 25010KT 30/13 A3026 RMK A01 T03020126  RH  034%=      5-min Rain = 0
KBO1 142028Z 26008KT 30/12 A3026 RMK A01 T03030118  RH  032%=      5-min Rain = 0
KBO1 142029Z 28006KT 30/12 A3026 RMK A01 T03000116  RH  032%=      5-min Rain = 0
KBO1 142030Z 26006KT 30/12 A3026 RMK A01 T02960118  RH  033%=      5-min Rain = 0
KBO1 142031Z 24004KT 30/12 A3026 RMK A01 T02960121  RH  034%=      5-min Rain = 0
KBO1 142032Z 22006KT 30/12 A3026 RMK A01 T02970121  RH  034%=      5-min Rain = 0
KBO1 142033Z 22006KT 30/12 A3026 RMK A01 T02980120  RH  033%=      5-min Rain = 0
KBO1 142034Z 21005KT 30/12 A3026 RMK A01 T02990121  RH  033%=      5-min Rain = 0
KBO1 142035Z 17005KT 30/12 A3026 RMK A01 T02980118  RH  033%=      5-min Rain = 0
KBO1 142036Z 16002KT 30/12 A3026 RMK A01 T02980121  RH  034%=      5-min Rain = 0
KBO1 142037Z 35001KT 30/12 A3026 RMK A01 T02980117  RH  033%=      5-min Rain = 0
KBO1 142038Z 32005KT 30/12 A3026 RMK A01 T02990123  RH  034%=      5-min Rain = 0
KBO1 142039Z 35004KT 30/12 A3025 RMK A01 T03000116  RH  032%=      5-min Rain = 0
KBO1 142040Z 33004KT 30/12 A3025 RMK A01 T02980120  RH  033%=      5-min Rain = 0
KBO1 142041Z 28006KT 30/12 A3025 RMK A01 T02990120  RH  033%=      5-min Rain = 0
KBO1 142042Z 26005KT 30/12 A3025 RMK A01 T02990117  RH  032%=      5-min Rain = 0
KBO1 142043Z 26005KT 30/12 A3025 RMK A01 T02990118  RH  033%=      5-min Rain = 0
KBO1 142044Z 27007KT 30/12 A3025 RMK A01 T02990123  RH  034%=      5-min Rain = 0
KBO1 142045Z 29007KT 30/12 A3025 RMK A01 T03000119  RH  033%=      5-min Rain = 0
KBO1 142046Z 29005KT 30/12 A3025 RMK A01 T03000120  RH  033%=      5-min Rain = 0
KBO1 142047Z 27002KT 30/12 A3025 RMK A01 T02990116  RH  032%=      5-min Rain = 0
KBO1 142048Z 25002KT 30/12 A3025 RMK A01 T02970118  RH  033%=      5-min Rain = 0
KBO1 142049Z 27003G8KT 30/12 A3025 RMK A01 T02970119  RH  033%=      5-min Rain = 0
KBO1 142050Z 26007KT 30/12 A3025 RMK A01 T02990123  RH  034%=      5-min Rain = 0
KBO1 142051Z 25002KT 30/12 A3025 RMK A01 T03000117  RH  032%=      5-min Rain = 0
KBO1 142052Z 28006KT 30/12 A3025 RMK A01 T03000122  RH  033%=      5-min Rain = 0
KBO1 142053Z 28005KT 30/12 A3025 RMK A01 T03000117  RH  032%=      5-min Rain = 0
KBO1 142054Z 27003KT 30/11 A3025 RMK A01 T02980113  RH  032%=      5-min Rain = 0
KBO1 142055Z 32004KT 30/12 A3025 RMK A01 T02970117  RH  033%=      5-min Rain = 0
KBO1 142056Z 32007G12KT 30/12 A3024 RMK A01 T02990119  RH  033%=      5-min Rain = 0
KBO1 142057Z 29012KT 30/12 A3024 RMK A01 T03010119  RH  033%=      5-min Rain = 0
KBO1 142058Z 29010KT 30/12 A3024 RMK A01 T03020116  RH  032%=      5-min Rain = 0
KBO1 142059Z 29007KT 30/12 A3024 RMK A01 T03010119  RH  033%=      5-min Rain = 0
KBO1 142100Z 29009KT 30/13 A3024 RMK A01 T03020125  RH  034%=      5-min Rain = 0
KBO1 142101Z 28009KT 31/12 A3024 RMK A01 T03050119  RH  032%=      5-min Rain = 0
KBO1 142102Z 30008KT 30/12 A3024 RMK A01 T03030120  RH  032%=      5-min Rain = 0
KBO1 142103Z 32008KT 30/12 A3024 RMK A01 T03030121  RH  033%=      5-min Rain = 0
KBO1 142104Z 29006KT 30/12 A3024 RMK A01 T03020123  RH  033%=      5-min Rain = 0
KBO1 142105Z 28009KT 30/12 A3024 RMK A01 T03030124  RH  033%=      5-min Rain = 0
KBO1 142106Z 30007KT 31/12 A3024 RMK A01 T03050121  RH  032%=      5-min Rain = 0
KBO1 142107Z 32006KT 31/12 A3024 RMK A01 T03050123  RH  033%=      5-min Rain = 0
KBO1 142108Z 30007KT 30/13 A3024 RMK A01 T03040125  RH  033%=      5-min Rain = 0
KBO1 142109Z 31009KT 30/12 A3024 RMK A01 T03040122  RH  033%=      5-min Rain = 0
KBO1 142110Z 29008KT 30/12 A3024 RMK A01 T03030124  RH  033%=      5-min Rain = 0
KBO1 142111Z 29010KT 30/13 A3024 RMK A01 T03030126  RH  034%=      5-min Rain = 0
KBO1 142112Z 29009KT 30/12 A3024 RMK A01 T03040124  RH  033%=      5-min Rain = 0
KBO1 142113Z 29007KT 31/13 A3024 RMK A01 T03050125  RH  033%=      5-min Rain = 0
KBO1 142114Z 28009KT 31/13 A3024 RMK A01 T03070129  RH  034%=      5-min Rain = 0
KBO1 142115Z 29009KT 31/13 A3024 RMK A01 T03080125  RH  033%=      5-min Rain = 0
KBO1 142116Z 29007KT 31/12 A3024 RMK A01 T03060123  RH  033%=      5-min Rain = 0
KBO1 142117Z 30004KT 30/12 A3024 RMK A01 T03030124  RH  033%=      5-min Rain = 0
KBO1 142118Z 30003KT 30/12 A3024 RMK A01 T03020123  RH  033%=      5-min Rain = 0
KBO1 142119Z 30001KT 30/12 A3023 RMK A01 T03030121  RH  033%=      5-min Rain = 0
KBO1 142120Z 31001KT 30/12 A3023 RMK A01 T03020123  RH  033%=      5-min Rain = 0
KBO1 142121Z 28005KT 31/13 A3023 RMK A01 T03050128  RH  034%=      5-min Rain = 0
KBO1 142122Z 26007KT 31/13 A3023 RMK A01 T03070129  RH  034%=      5-min Rain = 0
KBO1 142123Z 26008KT 31/13 A3023 RMK A01 T03070130  RH  034%=      5-min Rain = 0
KBO1 142124Z 26007KT 31/13 A3023 RMK A01 T03070129  RH  034%=      5-min Rain = 0
KBO1 142125Z 28006KT 31/13 A3023 RMK A01 T03060127  RH  034%=      5-min Rain = 0
KBO1 142126Z 30007KT 30/13 A3023 RMK A01 T03040130  RH  035%=      5-min Rain = 0
KBO1 142127Z 29006KT 30/13 A3023 RMK A01 T03040130  RH  035%=      5-min Rain = 0
KBO1 142128Z 30006KT 30/13 A3023 RMK A01 T03040130  RH  035%=      5-min Rain = 0
KBO1 142129Z 30006KT 30/13 A3023 RMK A01 T03040132  RH  035%=      5-min Rain = 0
KBO1 142130Z 27007KT 30/13 A3023 RMK A01 T03040132  RH  035%=      5-min Rain = 0
KBO1 142131Z 28007KT 30/13 A3023 RMK A01 T03040131  RH  035%=      5-min Rain = 0
KBO1 142132Z 28008KT 30/13 A3023 RMK A01 T03040131  RH  035%=      5-min Rain = 0
KBO1 142133Z 29005KT 30/13 A3023 RMK A01 T03020131  RH  035%=      5-min Rain = 0
KBO1 142134Z 29009KT 30/14 A3023 RMK A01 T03020135  RH  036%=      5-min Rain = 0
KBO1 142135Z 29007KT 30/13 A3023 RMK A01 T03030132  RH  035%=      5-min Rain = 0
KBO1 142136Z 30007KT 30/13 A3023 RMK A01 T03020132  RH  035%=      5-min Rain = 0
KBO1 142137Z 31005KT 30/13 A3022 RMK A01 T03010132  RH  036%=      5-min Rain = 0
KBO1 142138Z 32006KT 30/13 A3022 RMK A01 T03000133  RH  036%=      5-min Rain = 0
KBO1 142139Z 32005KT 30/13 A3022 RMK A01 T03000133  RH  036%=      5-min Rain = 0
KBO1 142140Z 31005KT 30/13 A3022 RMK A01 T03010134  RH  036%=      5-min Rain = 0
KBO1 142141Z 27005KT 30/14 A3022 RMK A01 T03010136  RH  036%=      5-min Rain = 0
KBO1 142142Z 24006KT 30/13 A3022 RMK A01 T03040134  RH  035%=      5-min Rain = 0
KBO1 142143Z 24004KT 30/13 A3022 RMK A01 T03040133  RH  035%=      5-min Rain = 0
KBO1 142144Z 28005KT 30/14 A3022 RMK A01 T03040135  RH  036%=      5-min Rain = 0
KBO1 142145Z 29005KT 30/13 A3022 RMK A01 T03040134  RH  035%=      5-min Rain = 0
KBO1 142146Z 26007KT 30/14 A3022 RMK A01 T03030138  RH  036%=      5-min Rain = 0
KBO1 142147Z 24009KT 31/14 A3022 RMK A01 T03050138  RH  036%=      5-min Rain = 0
KBO1 142148Z 24010KT 31/14 A3022 RMK A01 T03060141  RH  036%=      5-min Rain = 0
KBO1 142149Z 25007KT 31/14 A3022 RMK A01 T03080138  RH  036%=      5-min Rain = 0
KBO1 142150Z 24006KT 31/14 A3022 RMK A01 T03090139  RH  036%=      5-min Rain = 0
KBO1 142151Z 24011KT 31/14 A3022 RMK A01 T03080139  RH  036%=      5-min Rain = 0
KBO1 142152Z 24010KT 31/14 A3022 RMK A01 T03080137  RH  035%=      5-min Rain = 0
KBO1 142153Z 23003KT 31/14 A3022 RMK A01 T03060135  RH  035%=      5-min Rain = 0
KBO1 142154Z 21002KT 30/14 A3022 RMK A01 T03030136  RH  036%=      5-min Rain = 0
KBO1 142155Z 18003KT 30/14 A3022 RMK A01 T03030135  RH  036%=      5-min Rain = 0
KBO1 142156Z 20004KT 30/14 A3021 RMK A01 T03030137  RH  036%=      5-min Rain = 0
KBO1 142157Z 22007KT 30/14 A3021 RMK A01 T03040137  RH  036%=      5-min Rain = 0
KBO1 142158Z 25008KT 31/14 A3021 RMK A01 T03050136  RH  036%=      5-min Rain = 0
KBO1 142159Z 26008KT 31/14 A3021 RMK A01 T03050137  RH  036%=      5-min Rain = 0
KBO1 142200Z 27008KT 30/14 A3021 RMK A01 T03040136  RH  036%=      5-min Rain = 0
KBO1 142201Z 31006KT 30/14 A3021 RMK A01 T03040135  RH  036%=      5-min Rain = 0
KBO1 142202Z 28008KT 30/14 A3021 RMK A01 T03030137  RH  036%=      5-min Rain = 0
KBO1 142203Z 26008KT 31/13 A3021 RMK A01 T03050134  RH  035%=      5-min Rain = 0
KBO1 142204Z 24009KT 31/14 A3021 RMK A01 T03060135  RH  035%=      5-min Rain = 0
KBO1 142205Z 24008KT 31/13 A3021 RMK A01 T03050133  RH  035%=      5-min Rain = 0
KBO1 142206Z 24008KT 30/14 A3021 RMK A01 T03040135  RH  035%=      5-min Rain = 0
KBO1 142207Z 22005KT 30/13 A3021 RMK A01 T03040133  RH  035%=      5-min Rain = 0
KBO1 142208Z 19004KT 30/13 A3021 RMK A01 T03040131  RH  035%=      5-min Rain = 0
KBO1 142209Z 22002KT 30/13 A3021 RMK A01 T03030132  RH  035%=      5-min Rain = 0
KBO1 142210Z 27003KT 30/14 A3021 RMK A01 T03030136  RH  036%=      5-min Rain = 0
KBO1 142211Z 29004KT 31/13 A3021 RMK A01 T03060134  RH  035%=      5-min Rain = 0
KBO1 142212Z 30003KT 31/13 A3021 RMK A01 T03070129  RH  034%=      5-min Rain = 0
KBO1 142213Z 26002KT 31/13 A3021 RMK A01 T03050130  RH  034%=      5-min Rain = 0
KBO1 142214Z 28004KT 31/13 A3021 RMK A01 T03050131  RH  034%=      5-min Rain = 0
KBO1 142215Z 30003KT 31/13 A3021 RMK A01 T03050134  RH  035%=      5-min Rain = 0
KBO1 142216Z 28002KT 30/13 A3021 RMK A01 T03040130  RH  034%=      5-min Rain = 0
KBO1 142217Z 29003KT 30/13 A3021 RMK A01 T03040132  RH  035%=      5-min Rain = 0
KBO1 142218Z 31005KT 31/13 A3021 RMK A01 T03050134  RH  035%=      5-min Rain = 0
KBO1 142219Z 32005KT 31/13 A3021 RMK A01 T03060132  RH  035%=      5-min Rain = 0
KBO1 142220Z 31005KT 31/14 A3021 RMK A01 T03070135  RH  035%=      5-min Rain = 0
KBO1 142221Z 33002KT 31/13 A3021 RMK A01 T03080131  RH  034%=      5-min Rain = 0
KBO1 142222Z 33002KT 31/13 A3021 RMK A01 T03070131  RH  034%=      5-min Rain = 0
KBO1 142223Z 32002KT 31/13 A3021 RMK A01 T03080133  RH  034%=      5-min Rain = 0
KBO1 142224Z 28004KT 31/14 A3021 RMK A01 T03090135  RH  035%=      5-min Rain = 0
KBO1 142225Z 25004KT 31/14 A3021 RMK A01 T03100135  RH  034%=      5-min Rain = 0
KBO1 142226Z 23004KT 31/14 A3021 RMK A01 T03100135  RH  034%=      5-min Rain = 0
KBO1 142227Z 25003KT 31/13 A302 RMK A01 T03100134  RH  034%=      5-min Rain = 0
KBO1 142228Z 26003KT 31/13 A302 RMK A01 T03100134  RH  034%=      5-min Rain = 0
KBO1 142229Z 30002KT 31/14 A302 RMK A01 T03100135  RH  034%=      5-min Rain = 0
KBO1 142230Z 25004G10KT 31/14 A302 RMK A01 T03100135  RH  034%=      5-min Rain = 0
KBO1 142231Z 25008KT 31/13 A302 RMK A01 T03100134  RH  034%=      5-min Rain = 0
KBO1 142232Z 28004KT 31/14 A302 RMK A01 T03090135  RH  035%=      5-min Rain = 0
KBO1 142233Z 28005KT 31/13 A302 RMK A01 T03090134  RH  034%=      5-min Rain = 0
KBO1 142234Z 30004KT 31/13 A302 RMK A01 T03070131  RH  034%=      5-min Rain = 0
KBO1 142235Z 29002KT 31/13 A302 RMK A01 T03050131  RH  034%=      5-min Rain = 0
KBO1 142236Z 28002KT 30/13 A302 RMK A01 T03040131  RH  035%=      5-min Rain = 0
KBO1 142237Z 25004KT 30/13 A302 RMK A01 T03040134  RH  035%=      5-min Rain = 0
KBO1 142238Z 26007KT 31/13 A302 RMK A01 T03070134  RH  035%=      5-min Rain = 0
KBO1 142239Z 26008KT 31/13 A302 RMK A01 T03090134  RH  034%=      5-min Rain = 0
KBO1 142240Z 27007KT 31/13 A302 RMK A01 T03090133  RH  034%=      5-min Rain = 0
KBO1 142241Z 26010KT 31/13 A302 RMK A01 T03090134  RH  034%=      5-min Rain = 0
KBO1 142242Z 25007KT 31/13 A302 RMK A01 T03090131  RH  034%=      5-min Rain = 0
KBO1 142243Z 27007KT 31/13 A302 RMK A01 T03080133  RH  034%=      5-min Rain = 0
KBO1 142244Z 27008KT 31/13 A302 RMK A01 T03080133  RH  034%=      5-min Rain = 0
KBO1 142245Z 27008KT 31/13 A302 RMK A01 T03080131  RH  034%=      5-min Rain = 0
KBO1 142246Z 28006KT 31/13 A302 RMK A01 T03080131  RH  034%=      5-min Rain = 0
KBO1 142247Z 28008KT 31/13 A302 RMK A01 T03080132  RH  034%=      5-min Rain = 0
KBO1 142248Z 28006KT 31/13 A302 RMK A01 T03070129  RH  034%=      5-min Rain = 0
KBO1 142249Z 28006KT 31/13 A302 RMK A01 T03050130  RH  034%=      5-min Rain = 0
KBO1 142250Z 29006KT 31/13 A302 RMK A01 T03050130  RH  034%=      5-min Rain = 0
KBO1 142251Z 30004KT 31/13 A302 RMK A01 T03050130  RH  034%=      5-min Rain = 0
KBO1 142252Z 29003KT 31/13 A302 RMK A01 T03050131  RH  034%=      5-min Rain = 0
KBO1 142253Z 27003KT 31/13 A302 RMK A01 T03060130  RH  034%=      5-min Rain = 0
KBO1 142254Z 25003KT 31/13 A302 RMK A01 T03070130  RH  034%=      5-min Rain = 0
KBO1 142255Z 29004KT 31/13 A302 RMK A01 T03080131  RH  034%=      5-min Rain = 0
KBO1 142256Z 29002KT 31/13 A302 RMK A01 T03080130  RH  034%=      5-min Rain = 0
KBO1 142257Z 30001KT 31/13 A302 RMK A01 T03080129  RH  034%=      5-min Rain = 0
KBO1 142258Z 17001KT 31/13 A302 RMK A01 T03080128  RH  033%=      5-min Rain = 0
KBO1 142259Z 17003KT 31/13 A302 RMK A01 T03090128  RH  033%=      5-min Rain = 0
KBO1 142300Z 20003KT 31/13 A302 RMK A01 T03100129  RH  033%=      5-min Rain = 0
KBO1 142301Z 20006KT 31/13 A302 RMK A01 T03100128  RH  033%=      5-min Rain = 0
KBO1 142302Z 19005KT 31/13 A302 RMK A01 T03100125  RH  032%=      5-min Rain = 0
KBO1 142303Z 19005KT 31/13 A302 RMK A01 T03070128  RH  033%=      5-min Rain = 0
KBO1 142304Z 19001KT 31/13 A302 RMK A01 T03070125  RH  033%=      5-min Rain = 0
KBO1 142305Z 09000KT 31/12 A302 RMK A01 T03070124  RH  033%=      5-min Rain = 0
KBO1 142306Z 20001KT 31/13 A302 RMK A01 T03080125  RH  033%=      5-min Rain = 0
KBO1 142307Z 21005KT 31/13 A302 RMK A01 T03090128  RH  033%=      5-min Rain = 0
KBO1 142308Z 21006KT 31/13 A302 RMK A01 T03110127  RH  033%=      5-min Rain = 0
KBO1 142309Z 21005G10KT 31/13 A302 RMK A01 T03100130  RH  033%=      5-min Rain = 0
KBO1 142310Z 21009KT 31/13 A302 RMK A01 T03110129  RH  033%=      5-min Rain = 0
KBO1 142311Z 21007KT 31/13 A302 RMK A01 T03110125  RH  032%=      5-min Rain = 0
KBO1 142312Z 22007KT 31/13 A302 RMK A01 T03090126  RH  033%=      5-min Rain = 0
KBO1 142313Z 21006KT 31/12 A302 RMK A01 T03090124  RH  032%=      5-min Rain = 0
KBO1 142314Z 20005KT 31/12 A302 RMK A01 T03070124  RH  033%=      5-min Rain = 0
KBO1 142315Z 20004KT 31/12 A302 RMK A01 T03070123  RH  032%=      5-min Rain = 0
KBO1 142316Z 22005KT 31/12 A302 RMK A01 T03060124  RH  033%=      5-min Rain = 0
KBO1 142317Z 25004KT 31/13 A302 RMK A01 T03060125  RH  033%=      5-min Rain = 0
KBO1 142318Z 25003KT 31/13 A302 RMK A01 T03070125  RH  033%=      5-min Rain = 0
KBO1 142319Z 22003KT 31/13 A302 RMK A01 T03080125  RH  033%=      5-min Rain = 0
KBO1 142320Z 22004KT 31/12 A302 RMK A01 T03090124  RH  032%=      5-min Rain = 0
KBO1 142321Z 21005KT 31/13 A302 RMK A01 T03070126  RH  033%=      5-min Rain = 0
KBO1 142322Z 18006KT 31/13 A302 RMK A01 T03070127  RH  033%=      5-min Rain = 0
KBO1 142323Z 18007KT 31/13 A302 RMK A01 T03080126  RH  033%=      5-min Rain = 0
KBO1 142324Z 21009KT 31/13 A302 RMK A01 T03080127  RH  033%=      5-min Rain = 0
KBO1 142325Z 21010KT 31/13 A302 RMK A01 T03090126  RH  033%=      5-min Rain = 0
KBO1 142326Z 19009KT 31/12 A302 RMK A01 T03090124  RH  032%=      5-min Rain = 0
KBO1 142327Z 21008KT 31/13 A302 RMK A01 T03060125  RH  033%=      5-min Rain = 0
KBO1 142328Z 22007KT 31/12 A302 RMK A01 T03060124  RH  033%=      5-min Rain = 0
KBO1 142329Z 22007KT 31/13 A302 RMK A01 T03060127  RH  033%=      5-min Rain = 0
KBO1 142330Z 20006KT 31/12 A302 RMK A01 T03070124  RH  033%=      5-min Rain = 0
KBO1 142331Z 21005KT 31/12 A302 RMK A01 T03070123  RH  032%=      5-min Rain = 0
KBO1 142332Z 21007KT 31/12 A302 RMK A01 T03060123  RH  033%=      5-min Rain = 0
KBO1 142333Z 20005KT 31/12 A302 RMK A01 T03060122  RH  032%=      5-min Rain = 0
KBO1 142334Z 23005KT 31/12 A302 RMK A01 T03060121  RH  032%=      5-min Rain = 0
KBO1 142335Z 26003KT 31/12 A302 RMK A01 T03060119  RH  032%=      5-min Rain = 0
KBO1 142336Z 28001KT 31/12 A302 RMK A01 T03060119  RH  032%=      5-min Rain = 0
KBO1 142337Z 25001KT 31/12 A302 RMK A01 T03060121  RH  032%=      5-min Rain = 0
KBO1 142338Z 19006KT 31/12 A302 RMK A01 T03080121  RH  032%=      5-min Rain = 0
KBO1 142339Z 21008KT 31/12 A302 RMK A01 T03090124  RH  032%=      5-min Rain = 0
KBO1 142340Z 23009KT 31/12 A302 RMK A01 T03090122  RH  032%=      5-min Rain = 0
KBO1 142341Z 22007KT 31/12 A302 RMK A01 T03080124  RH  032%=      5-min Rain = 0
KBO1 142342Z 20007KT 31/12 A302 RMK A01 T03080124  RH  032%=      5-min Rain = 0
KBO1 142343Z 20007KT 31/12 A302 RMK A01 T03080122  RH  032%=      5-min Rain = 0
KBO1 142344Z 20005KT 31/12 A3019 RMK A01 T03080123  RH  032%=      5-min Rain = 0
KBO1 142345Z 17005KT 31/12 A3019 RMK A01 T03070124  RH  032%=      5-min Rain = 0
KBO1 142346Z 18007KT 31/12 A3019 RMK A01 T03070122  RH  032%=      5-min Rain = 0
KBO1 142347Z 18007KT 31/12 A3019 RMK A01 T03070123  RH  032%=      5-min Rain = 0
KBO1 142348Z 16007KT 31/12 A3019 RMK A01 T03060122  RH  032%=      5-min Rain = 0
KBO1 142349Z 15005KT 30/12 A3019 RMK A01 T03040122  RH  033%=      5-min Rain = 0
KBO1 142350Z 16005KT 30/12 A3019 RMK A01 T03040124  RH  033%=      5-min Rain = 0
KBO1 142351Z 17006KT 31/12 A3019 RMK A01 T03050123  RH  033%=      5-min Rain = 0
KBO1 142352Z 18006KT 31/12 A3019 RMK A01 T03050123  RH  033%=      5-min Rain = 0
KBO1 142353Z 23006KT 31/13 A3019 RMK A01 T03050128  RH  034%=      5-min Rain = 0
KBO1 142354Z 23006KT 31/13 A3019 RMK A01 T03050131  RH  034%=      5-min Rain = 0
KBO1 142355Z 23006KT 31/13 A3019 RMK A01 T03050128  RH  034%=      5-min Rain = 0
KBO1 142356Z 24005KT 30/13 A3019 RMK A01 T03040129  RH  034%=      5-min Rain = 0
KBO1 142357Z 23005KT 30/13 A3019 RMK A01 T03040129  RH  034%=      5-min Rain = 0
KBO1 142358Z 22005KT 30/13 A3019 RMK A01 T03040127  RH  034%=      5-min Rain = 0
KBO1 142359Z 22005KT 30/13 A3019 RMK A01 T03030128  RH  034%=      5-min Rain = 0
KBO1 150000Z 23004KT 30/13 A302 RMK A01 T03020126  RH  034%=      5-min Rain = 0
KBO1 150001Z 21005KT 30/13 A302 RMK A01 T03020129  RH  034%=      5-min Rain = 0
KBO1 150002Z 21007KT 30/13 A302 RMK A01 T03030128  RH  034%=      5-min Rain = 0
KBO1 150003Z 20008KT 30/13 A302 RMK A01 T03040129  RH  034%=      5-min Rain = 0
KBO1 150004Z 20010KT 31/13 A302 RMK A01 T03050125  RH  033%=      5-min Rain = 0
KBO1 150005Z 21008KT 31/13 A302 RMK A01 T03050126  RH  033%=      5-min Rain = 0
KBO1 150006Z 22008KT 30/13 A302 RMK A01 T03040128  RH  034%=      5-min Rain = 0
KBO1 150007Z 22008KT 30/13 A302 RMK A01 T03030127  RH  034%=      5-min Rain = 0
KBO1 150008Z 21009KT 30/13 A302 RMK A01 T03030127  RH  034%=      5-min Rain = 0
KBO1 150009Z 18008KT 30/13 A302 RMK A01 T03030131  RH  035%=      5-min Rain = 0
KBO1 150010Z 17008KT 30/13 A302 RMK A01 T03030132  RH  035%=      5-min Rain = 0
KBO1 150011Z 17006KT 30/13 A302 RMK A01 T03030131  RH  035%=      5-min Rain = 0
KBO1 150012Z 18005KT 30/13 A302 RMK A01 T03020131  RH  035%=      5-min Rain = 0
KBO1 150013Z 18005KT 30/13 A302 RMK A01 T03010131  RH  035%=      5-min Rain = 0
KBO1 150014Z 17005KT 30/13 A302 RMK A01 T03010132  RH  036%=      5-min Rain = 0
KBO1 150015Z 18006KT 30/13 A302 RMK A01 T03010132  RH  036%=      5-min Rain = 0
KBO1 150016Z 19007KT 30/13 A302 RMK A01 T03010133  RH  036%=      5-min Rain = 0
KBO1 150017Z 20008KT 30/13 A302 RMK A01 T03010134  RH  036%=      5-min Rain = 0
KBO1 150018Z 21007KT 30/13 A302 RMK A01 T03010134  RH  036%=      5-min Rain = 0
KBO1 150019Z 21007KT 30/13 A302 RMK A01 T03010131  RH  035%=      5-min Rain = 0
KBO1 150020Z 20007KT 30/13 A302 RMK A01 T03010134  RH  036%=      5-min Rain = 0
KBO1 150021Z 19009KT 30/13 A302 RMK A01 T03010133  RH  036%=      5-min Rain = 0
KBO1 150022Z 20010KT 30/13 A302 RMK A01 T03000131  RH  035%=      5-min Rain = 0
KBO1 150023Z 19010KT 30/13 A302 RMK A01 T02990128  RH  035%=      5-min Rain = 0
KBO1 150024Z 19009KT 30/13 A302 RMK A01 T02970128  RH  036%=      5-min Rain = 0
KBO1 150025Z 19009KT 30/13 A302 RMK A01 T02950127  RH  035%=      5-min Rain = 0
KBO1 150026Z 19009KT 29/13 A302 RMK A01 T02940126  RH  036%=      5-min Rain = 0
KBO1 150027Z 19008KT 29/13 A302 RMK A01 T02920126  RH  036%=      5-min Rain = 0
KBO1 150028Z 19006KT 29/13 A302 RMK A01 T02910126  RH  036%=      5-min Rain = 0
KBO1 150029Z 19007KT 29/12 A302 RMK A01 T02910124  RH  036%=      5-min Rain = 0
KBO1 150030Z 18007KT 29/13 A302 RMK A01 T02900125  RH  036%=      5-min Rain = 0
KBO1 150031Z 18008KT 29/12 A302 RMK A01 T02890124  RH  036%=      5-min Rain = 0
KBO1 150032Z 20007KT 29/12 A3021 RMK A01 T02880124  RH  036%=      5-min Rain = 0
KBO1 150033Z 20006KT 29/13 A3021 RMK A01 T02880127  RH  037%=      5-min Rain = 0
KBO1 150034Z 20005KT 29/13 A3021 RMK A01 T02860128  RH  038%=      5-min Rain = 0
KBO1 150035Z 20006KT 29/13 A3021 RMK A01 T02850126  RH  037%=      5-min Rain = 0
KBO1 150036Z 20006KT 28/12 A3021 RMK A01 T02840124  RH  037%=      5-min Rain = 0
KBO1 150037Z 20006KT 28/12 A3021 RMK A01 T02830124  RH  037%=      5-min Rain = 0
KBO1 150038Z 19005KT 28/13 A3021 RMK A01 T02830125  RH  038%=      5-min Rain = 0
KBO1 150039Z 19005KT 28/13 A3021 RMK A01 T02820125  RH  038%=      5-min Rain = 0
KBO1 150040Z 20005KT 28/13 A302 RMK A01 T02810125  RH  038%=      5-min Rain = 0
KBO1 150041Z 19004KT 28/13 A302 RMK A01 T02800126  RH  039%=      5-min Rain = 0
KBO1 150042Z 19004KT 28/13 A3021 RMK A01 T02790127  RH  039%=      5-min Rain = 0
KBO1 150043Z 19005KT 28/13 A3021 RMK A01 T02790127  RH  039%=      5-min Rain = 0
KBO1 150044Z 20005KT 28/13 A3021 RMK A01 T02780127  RH  039%=      5-min Rain = 0
KBO1 150045Z 20005KT 28/13 A3021 RMK A01 T02780128  RH  039%=      5-min Rain = 0
KBO1 150046Z 20005KT 28/13 A3021 RMK A01 T02780130  RH  040%=      5-min Rain = 0
KBO1 150047Z 19006KT 28/13 A3021 RMK A01 T02770130  RH  040%=      5-min Rain = 0
KBO1 150048Z 19006KT 28/13 A3021 RMK A01 T02770131  RH  041%=      5-min Rain = 0
KBO1 150049Z 19006KT 28/13 A3021 RMK A01 T02770132  RH  041%=      5-min Rain = 0
KBO1 150050Z 19006KT 28/13 A3021 RMK A01 T02760131  RH  041%=      5-min Rain = 0
KBO1 150051Z 19006KT 28/13 A3021 RMK A01 T02760132  RH  041%=      5-min Rain = 0
KBO1 150052Z 19005KT 28/13 A3021 RMK A01 T02760134  RH  042%=      5-min Rain = 0
KBO1 150053Z 19006KT 28/14 A3021 RMK A01 T02750136  RH  042%=      5-min Rain = 0
KBO1 150054Z 19006KT 28/14 A3021 RMK A01 T02750135  RH  042%=      5-min Rain = 0
KBO1 150055Z 19006KT 27/14 A3021 RMK A01 T02740135  RH  042%=      5-min Rain = 0
KBO1 150056Z 19006KT 27/14 A3021 RMK A01 T02740137  RH  043%=      5-min Rain = 0
KBO1 150057Z 19006KT 27/14 A3021 RMK A01 T02740137  RH  043%=      5-min Rain = 0
KBO1 150058Z 19006KT 27/14 A3021 RMK A01 T02730137  RH  043%=      5-min Rain = 0
KBO1 150059Z 19005KT 27/14 A3021 RMK A01 T02730139  RH  044%=      5-min Rain = 0
KBO1 150100Z 19005KT 27/14 A3021 RMK A01 T02730141  RH  044%=      5-min Rain = 0
KBO1 150101Z 19005KT 27/14 A3021 RMK A01 T02720140  RH  044%=      5-min Rain = 0
KBO1 150102Z 20005KT 27/14 A3021 RMK A01 T02720141  RH  045%=      5-min Rain = 0
KBO1 150103Z 20005KT 27/14 A3021 RMK A01 T02720143  RH  045%=      5-min Rain = 0
KBO1 150104Z 20005KT 27/14 A3021 RMK A01 T02710144  RH  046%=      5-min Rain = 0
KBO1 150105Z 20005KT 27/14 A3021 RMK A01 T02710144  RH  046%=      5-min Rain = 0
KBO1 150106Z 20005KT 27/15 A3021 RMK A01 T02710145  RH  046%=      5-min Rain = 0
KBO1 150107Z 20006KT 27/14 A3021 RMK A01 T02700144  RH  046%=      5-min Rain = 0
KBO1 150108Z 20005KT 27/15 A3021 RMK A01 T02700145  RH  046%=      5-min Rain = 0
KBO1 150109Z 20005KT 27/15 A3021 RMK A01 T02700145  RH  046%=      5-min Rain = 0
KBO1 150110Z 20005KT 27/15 A3021 RMK A01 T02700145  RH  046%=      5-min Rain = 0
KBO1 150111Z 20005KT 27/15 A3021 RMK A01 T02690145  RH  047%=      5-min Rain = 0
KBO1 150112Z 20005KT 27/15 A3021 RMK A01 T02690146  RH  047%=      5-min Rain = 0
KBO1 150113Z 20005KT 27/15 A3021 RMK A01 T02690146  RH  047%=      5-min Rain = 0
KBO1 150114Z 20005KT 27/15 A3021 RMK A01 T02680145  RH  047%=      5-min Rain = 0
KBO1 150115Z 20005KT 27/15 A3021 RMK A01 T02680145  RH  047%=      5-min Rain = 0
KBO1 150116Z 21005KT 27/14 A3022 RMK A01 T02680144  RH  047%=      5-min Rain = 0
KBO1 150117Z 21005KT 27/15 A3022 RMK A01 T02680147  RH  047%=      5-min Rain = 0
KBO1 150118Z 21005KT 27/15 A3022 RMK A01 T02680148  RH  048%=      5-min Rain = 0
KBO1 150119Z 21005KT 27/15 A3022 RMK A01 T02670150  RH  048%=      5-min Rain = 0
KBO1 150120Z 21005KT 27/15 A3021 RMK A01 T02670151  RH  049%=      5-min Rain = 0
KBO1 150121Z 21005KT 27/15 A3021 RMK A01 T02660149  RH  049%=      5-min Rain = 0
KBO1 150122Z 20005KT 27/15 A3021 RMK A01 T02660149  RH  049%=      5-min Rain = 0
KBO1 150123Z 20005KT 27/15 A3021 RMK A01 T02650150  RH  049%=      5-min Rain = 0
KBO1 150124Z 20005KT 26/15 A3021 RMK A01 T02640152  RH  050%=      5-min Rain = 0
KBO1 150125Z 20005KT 26/15 A3021 RMK A01 T02630153  RH  051%=      5-min Rain = 0
KBO1 150126Z 20005KT 26/15 A3021 RMK A01 T02620154  RH  051%=      5-min Rain = 0
KBO1 150127Z 20005KT 26/16 A3021 RMK A01 T02610155  RH  052%=      5-min Rain = 0
KBO1 150128Z 20005KT 26/16 A3021 RMK A01 T02600156  RH  053%=      5-min Rain = 0
KBO1 150129Z 20005KT 26/16 A3021 RMK A01 T02590157  RH  053%=      5-min Rain = 0
KBO1 150130Z 20004KT 26/16 A3021 RMK A01 T02590160  RH  054%=      5-min Rain = 0
KBO1 150131Z 20004KT 26/16 A3021 RMK A01 T02580159  RH  054%=      5-min Rain = 0
KBO1 150132Z 21004KT 26/16 A3021 RMK A01 T02580155  RH  053%=      5-min Rain = 0
KBO1 150133Z 21004KT 26/15 A3021 RMK A01 T02580153  RH  052%=      5-min Rain = 0
KBO1 150134Z 21004KT 26/15 A3021 RMK A01 T02590153  RH  052%=      5-min Rain = 0
KBO1 150135Z 21004KT 26/15 A3021 RMK A01 T02590154  RH  052%=      5-min Rain = 0
KBO1 150136Z 21004KT 26/16 A3021 RMK A01 T02590155  RH  053%=      5-min Rain = 0
KBO1 150137Z 21004KT 26/16 A3021 RMK A01 T02590155  RH  053%=      5-min Rain = 0
KBO1 150138Z 21004KT 26/16 A3021 RMK A01 T02590158  RH  054%=      5-min Rain = 0
KBO1 150139Z 21004KT 26/16 A3021 RMK A01 T02580158  RH  054%=      5-min Rain = 0
KBO1 150140Z 21004KT 26/16 A3021 RMK A01 T02570159  RH  055%=      5-min Rain = 0
KBO1 150141Z 21003KT 26/16 A3021 RMK A01 T02570158  RH  054%=      5-min Rain = 0
KBO1 150142Z 21004KT 26/16 A3021 RMK A01 T02570157  RH  054%=      5-min Rain = 0
KBO1 150143Z 21004KT 26/16 A3021 RMK A01 T02570155  RH  053%=      5-min Rain = 0
KBO1 150144Z 20004KT 26/15 A3021 RMK A01 T02570150  RH  052%=      5-min Rain = 0
KBO1 150145Z 20004KT 26/15 A3021 RMK A01 T02570151  RH  052%=      5-min Rain = 0
KBO1 150146Z 20004KT 26/15 A3022 RMK A01 T02580151  RH  052%=      5-min Rain = 0
KBO1 150147Z 20004KT 26/15 A3022 RMK A01 T02580153  RH  052%=      5-min Rain = 0
KBO1 150148Z 20004KT 26/15 A3022 RMK A01 T02580152  RH  052%=      5-min Rain = 0
KBO1 150149Z 20004KT 26/15 A3022 RMK A01 T02590154  RH  052%=      5-min Rain = 0
KBO1 150150Z 20004KT 26/16 A3022 RMK A01 T02580155  RH  053%=      5-min Rain = 0
KBO1 150151Z 21004KT 26/15 A3022 RMK A01 T02590153  RH  052%=      5-min Rain = 0
KBO1 150152Z 20004KT 26/15 A3022 RMK A01 T02580153  RH  052%=      5-min Rain = 0
KBO1 150153Z 20004KT 26/15 A3022 RMK A01 T02590154  RH  052%=      5-min Rain = 0
KBO1 150154Z 20004KT 26/16 A3022 RMK A01 T02590155  RH  053%=      5-min Rain = 0
KBO1 150155Z 20004KT 26/16 A3022 RMK A01 T02590155  RH  053%=      5-min Rain = 0
KBO1 150156Z 19003KT 26/15 A3022 RMK A01 T02590154  RH  052%=      5-min Rain = 0
KBO1 150157Z 19003KT 26/15 A3022 RMK A01 T02580153  RH  052%=      5-min Rain = 0
KBO1 150158Z 20003KT 26/15 A3022 RMK A01 T02580154  RH  052%=      5-min Rain = 0
KBO1 150159Z 20004KT 26/15 A3022 RMK A01 T02580153  RH  052%=      5-min Rain = 0
KBO1 150200Z 19003KT 26/15 A3022 RMK A01 T02580153  RH  052%=      5-min Rain = 0
KBO1 150201Z 19004KT 26/15 A3022 RMK A01 T02580153  RH  052%=      5-min Rain = 0
KBO1 150202Z 19004KT 26/15 A3022 RMK A01 T02580149  RH  051%=      5-min Rain = 0
KBO1 150203Z 19004KT 26/15 A3022 RMK A01 T02580147  RH  050%=      5-min Rain = 0
KBO1 150204Z 19004KT 26/15 A3022 RMK A01 T02580149  RH  051%=      5-min Rain = 0
KBO1 150205Z 19003KT 26/15 A3022 RMK A01 T02590151  RH  051%=      5-min Rain = 0
KBO1 150206Z 19003KT 26/15 A3022 RMK A01 T02590151  RH  052%=      5-min Rain = 0
KBO1 150207Z 19003KT 26/15 A3022 RMK A01 T02580152  RH  052%=      5-min Rain = 0
KBO1 150208Z 19004KT 26/15 A3022 RMK A01 T02580152  RH  052%=      5-min Rain = 0
KBO1 150209Z 19004KT 26/15 A3022 RMK A01 T02570152  RH  052%=      5-min Rain = 0
KBO1 150210Z 19004KT 26/15 A3022 RMK A01 T02570151  RH  052%=      5-min Rain = 0
KBO1 150211Z 19004KT 26/15 A3022 RMK A01 T02570153  RH  052%=      5-min Rain = 0
KBO1 150212Z 18004KT 26/15 A3022 RMK A01 T02560151  RH  052%=      5-min Rain = 0
KBO1 150213Z 18005KT 26/15 A3022 RMK A01 T02560153  RH  053%=      5-min Rain = 0
KBO1 150214Z 18005KT 26/16 A3022 RMK A01 T02560156  RH  054%=      5-min Rain = 0
KBO1 150215Z 18005KT 26/16 A3022 RMK A01 T02550156  RH  054%=      5-min Rain = 0
KBO1 150216Z 18005KT 25/16 A3022 RMK A01 T02540156  RH  055%=      5-min Rain = 0
KBO1 150217Z 18005KT 25/16 A3022 RMK A01 T02530159  RH  056%=      5-min Rain = 0
KBO1 150218Z 17005KT 25/16 A3022 RMK A01 T02520159  RH  056%=      5-min Rain = 0
KBO1 150219Z 17005KT 25/16 A3021 RMK A01 T02510159  RH  057%=      5-min Rain = 0
KBO1 150220Z 17005KT 25/16 A3021 RMK A01 T02500158  RH  057%=      5-min Rain = 0
KBO1 150221Z 16005KT 25/16 A3021 RMK A01 T02490157  RH  056%=      5-min Rain = 0
KBO1 150222Z 16005KT 25/16 A3021 RMK A01 T02500156  RH  056%=      5-min Rain = 0
KBO1 150223Z 15005KT 25/16 A3021 RMK A01 T02490155  RH  056%=      5-min Rain = 0
KBO1 150224Z 15004KT 25/16 A3021 RMK A01 T02490155  RH  056%=      5-min Rain = 0
KBO1 150225Z 15004KT 25/16 A3021 RMK A01 T02490157  RH  057%=      5-min Rain = 0
KBO1 150226Z 15004KT 25/16 A3021 RMK A01 T02500158  RH  057%=      5-min Rain = 0
KBO1 150227Z 15004KT 25/16 A3022 RMK A01 T02500158  RH  057%=      5-min Rain = 0
KBO1 150228Z 15004KT 25/16 A3022 RMK A01 T02500161  RH  058%=      5-min Rain = 0
KBO1 150229Z 15004KT 25/17 A3022 RMK A01 T02490166  RH  060%=      5-min Rain = 0
KBO1 150230Z 15004KT 25/17 A3022 RMK A01 T02480172  RH  062%=      5-min Rain = 0
KBO1 150231Z 15003KT 25/17 A3022 RMK A01 T02470169  RH  062%=      5-min Rain = 0
KBO1 150232Z 15003KT 25/17 A3022 RMK A01 T02450169  RH  062%=      5-min Rain = 0
KBO1 150233Z 15003KT 25/17 A3022 RMK A01 T02450167  RH  062%=      5-min Rain = 0
KBO1 150234Z 14003KT 25/16 A3022 RMK A01 T02450161  RH  059%=      5-min Rain = 0
KBO1 150235Z 14004KT 25/16 A3022 RMK A01 T02450160  RH  059%=      5-min Rain = 0
KBO1 150236Z 14003KT 25/16 A3022 RMK A01 T02460158  RH  058%=      5-min Rain = 0
KBO1 150237Z 13003KT 25/16 A3022 RMK A01 T02470155  RH  057%=      5-min Rain = 0
KBO1 150238Z 13004KT 25/16 A3022 RMK A01 T02480155  RH  056%=      5-min Rain = 0
KBO1 150239Z 13004KT 25/16 A3022 RMK A01 T02490155  RH  056%=      5-min Rain = 0
KBO1 150240Z 13004KT 25/16 A3022 RMK A01 T02500157  RH  056%=      5-min Rain = 0
KBO1 150241Z 13004KT 25/15 A3022 RMK A01 T02510154  RH  055%=      5-min Rain = 0
KBO1 150242Z 12004KT 25/16 A3022 RMK A01 T02520155  RH  055%=      5-min Rain = 0
KBO1 150243Z 12004KT 25/16 A3022 RMK A01 T02520155  RH  055%=      5-min Rain = 0
KBO1 150244Z 12004KT 25/16 A3022 RMK A01 T02530155  RH  055%=      5-min Rain = 0
KBO1 150245Z 12005KT 25/16 A3023 RMK A01 T02530157  RH  055%=      5-min Rain = 0
KBO1 150246Z 12005KT 25/16 A3023 RMK A01 T02530157  RH  055%=      5-min Rain = 0
KBO1 150247Z 12005KT 25/16 A3023 RMK A01 T02530158  RH  055%=      5-min Rain = 0
KBO1 150248Z 12005KT 25/16 A3023 RMK A01 T02530157  RH  055%=      5-min Rain = 0
KBO1 150249Z 11006KT 25/16 A3023 RMK A01 T02530158  RH  056%=      5-min Rain = 0
KBO1 150250Z 10006KT 25/16 A3023 RMK A01 T02510159  RH  057%=      5-min Rain = 0
KBO1 150251Z 11006KT 25/16 A3023 RMK A01 T02500160  RH  057%=      5-min Rain = 0
KBO1 150252Z 10005KT 25/16 A3023 RMK A01 T02490159  RH  057%=      5-min Rain = 0
KBO1 150253Z 09007KT 25/16 A3023 RMK A01 T02480162  RH  059%=      5-min Rain = 0
KBO1 150254Z 10007KT 25/16 A3023 RMK A01 T02460163  RH  060%=      5-min Rain = 0
KBO1 150255Z 10008KT 25/16 A3023 RMK A01 T02450161  RH  060%=      5-min Rain = 0
KBO1 150256Z 10008KT 24/16 A3023 RMK A01 T02440160  RH  060%=      5-min Rain = 0
KBO1 150257Z 10007KT 24/16 A3023 RMK A01 T02430161  RH  060%=      5-min Rain = 0
KBO1 150258Z 11008KT 24/16 A3023 RMK A01 T02420161  RH  060%=      5-min Rain = 0
KBO1 150259Z 11008KT 24/16 A3023 RMK A01 T02420160  RH  060%=      5-min Rain = 0
KBO1 150300Z 11008KT 24/16 A3023 RMK A01 T02410159  RH  060%=      5-min Rain = 0
KBO1 150301Z 11007KT 24/16 A3023 RMK A01 T02420157  RH  059%=      5-min Rain = 0
KBO1 150302Z 11007KT 24/16 A3023 RMK A01 T02420157  RH  059%=      5-min Rain = 0
KBO1 150303Z 11007KT 24/16 A3023 RMK A01 T02430157  RH  059%=      5-min Rain = 0
KBO1 150304Z 11008KT 24/16 A3023 RMK A01 T02430156  RH  059%=      5-min Rain = 0
KBO1 150305Z 11008KT 24/15 A3023 RMK A01 T02430154  RH  058%=      5-min Rain = 0
KBO1 150306Z 11008KT 24/15 A3023 RMK A01 T02430152  RH  057%=      5-min Rain = 0
KBO1 150307Z 11007KT 25/15 A3024 RMK A01 T02450153  RH  056%=      5-min Rain = 0
KBO1 150308Z 11007KT 25/15 A3024 RMK A01 T02450152  RH  056%=      5-min Rain = 0
KBO1 150309Z 12006KT 25/15 A3024 RMK A01 T02450153  RH  056%=      5-min Rain = 0
KBO1 150310Z 12006KT 25/15 A3024 RMK A01 T02450154  RH  057%=      5-min Rain = 0
KBO1 150311Z 12006KT 24/15 A3024 RMK A01 T02440154  RH  057%=      5-min Rain = 0
KBO1 150312Z 12007KT 24/15 A3024 RMK A01 T02440154  RH  057%=      5-min Rain = 0
KBO1 150313Z 12007KT 24/15 A3024 RMK A01 T02430153  RH  057%=      5-min Rain = 0
KBO1 150314Z 12007KT 24/15 A3024 RMK A01 T02430154  RH  057%=      5-min Rain = 0
KBO1 150315Z 13007KT 24/15 A3024 RMK A01 T02430154  RH  058%=      5-min Rain = 0
KBO1 150316Z 13007KT 24/15 A3024 RMK A01 T02420154  RH  058%=      5-min Rain = 0
KBO1 150317Z 13007KT 24/15 A3024 RMK A01 T02420154  RH  058%=      5-min Rain = 0
KBO1 150318Z 14007KT 24/15 A3024 RMK A01 T02410154  RH  058%=      5-min Rain = 0
KBO1 150319Z 13008KT 24/16 A3024 RMK A01 T02410155  RH  059%=      5-min Rain = 0
KBO1 150320Z 13008KT 24/15 A3024 RMK A01 T02400154  RH  059%=      5-min Rain = 0
KBO1 150321Z 13007KT 24/15 A3024 RMK A01 T02390154  RH  059%=      5-min Rain = 0
KBO1 150322Z 13008KT 24/15 A3024 RMK A01 T02390153  RH  058%=      5-min Rain = 0
KBO1 150323Z 14008KT 24/15 A3024 RMK A01 T02390152  RH  058%=      5-min Rain = 0
KBO1 150324Z 14008KT 24/15 A3024 RMK A01 T02390153  RH  058%=      5-min Rain = 0
KBO1 150325Z 14007KT 24/15 A3024 RMK A01 T02390153  RH  058%=      5-min Rain = 0
KBO1 150326Z 14007KT 24/15 A3024 RMK A01 T02390154  RH  059%=      5-min Rain = 0
KBO1 150327Z 14007KT 24/15 A3024 RMK A01 T02390154  RH  059%=      5-min Rain = 0
KBO1 150328Z 14007KT 24/15 A3024 RMK A01 T02380154  RH  059%=      5-min Rain = 0
KBO1 150329Z 14006KT 24/16 A3024 RMK A01 T02380155  RH  060%=      5-min Rain = 0
KBO1 150330Z 15006KT 24/15 A3024 RMK A01 T02370154  RH  059%=      5-min Rain = 0
KBO1 150331Z 15006KT 24/15 A3024 RMK A01 T02380154  RH  059%=      5-min Rain = 0
KBO1 150332Z 15006KT 24/15 A3024 RMK A01 T02380153  RH  059%=      5-min Rain = 0
KBO1 150333Z 15007KT 24/15 A3024 RMK A01 T02370153  RH  059%=      5-min Rain = 0
KBO1 150334Z 15007KT 24/15 A3024 RMK A01 T02370152  RH  059%=      5-min Rain = 0
KBO1 150335Z 15007KT 24/15 A3024 RMK A01 T02380151  RH  058%=      5-min Rain = 0
KBO1 150336Z 16007KT 24/15 A3024 RMK A01 T02380151  RH  058%=      5-min Rain = 0
KBO1 150337Z 16007KT 24/15 A3025 RMK A01 T02370152  RH  059%=      5-min Rain = 0
KBO1 150338Z 16007KT 24/15 A3025 RMK A01 T02370152  RH  059%=      5-min Rain = 0
KBO1 150339Z 16006KT 24/15 A3025 RMK A01 T02370152  RH  059%=      5-min Rain = 0
KBO1 150340Z 16006KT 24/15 A3025 RMK A01 T02370152  RH  059%=      5-min Rain = 0
KBO1 150341Z 16006KT 24/15 A3025 RMK A01 T02370152  RH  059%=      5-min Rain = 0
KBO1 150342Z 16006KT 24/15 A3025 RMK A01 T02370152  RH  059%=      5-min Rain = 0
KBO1 150343Z 16006KT 24/15 A3025 RMK A01 T02370153  RH  059%=      5-min Rain = 0
KBO1 150344Z 16006KT 24/15 A3025 RMK A01 T02360154  RH  060%=      5-min Rain = 0
KBO1 150345Z 16006KT 24/15 A3025 RMK A01 T02360154  RH  060%=      5-min Rain = 0
KBO1 150346Z 16006KT 24/15 A3025 RMK A01 T02350154  RH  060%=      5-min Rain = 0
KBO1 150347Z 15006KT 24/15 A3025 RMK A01 T02350153  RH  060%=      5-min Rain = 0
KBO1 150348Z 15006KT 24/15 A3025 RMK A01 T02350152  RH  060%=      5-min Rain = 0
KBO1 150349Z 15005KT 24/15 A3025 RMK A01 T02350151  RH  059%=      5-min Rain = 0
KBO1 150350Z 15006KT 24/15 A3024 RMK A01 T02360152  RH  060%=      5-min Rain = 0
KBO1 150351Z 14005KT 24/15 A3024 RMK A01 T02360153  RH  060%=      5-min Rain = 0
KBO1 150352Z 14005KT 24/15 A3024 RMK A01 T02360154  RH  060%=      5-min Rain = 0
KBO1 150353Z 14005KT 24/15 A3024 RMK A01 T02350154  RH  060%=      5-min Rain = 0
KBO1 150354Z 14005KT 24/15 A3024 RMK A01 T02350154  RH  061%=      5-min Rain = 0
KBO1 150355Z 13006KT 23/15 A3024 RMK A01 T02340154  RH  061%=      5-min Rain = 0
KBO1 150356Z 13006KT 23/16 A3024 RMK A01 T02340155  RH  061%=      5-min Rain = 0
KBO1 150357Z 13006KT 23/16 A3024 RMK A01 T02340155  RH  061%=      5-min Rain = 0
KBO1 150358Z 14006KT 23/16 A3024 RMK A01 T02330155  RH  061%=      5-min Rain = 0
KBO1 150359Z 13006KT 23/16 A3024 RMK A01 T02330155  RH  061%=      5-min Rain = 0
KBO1 150400Z 14007KT 23/15 A3024 RMK A01 T02330154  RH  061%=      5-min Rain = 0
KBO1 150401Z 14007KT 23/15 A3024 RMK A01 T02330151  RH  060%=      5-min Rain = 0
KBO1 150402Z 14008KT 24/15 A3024 RMK A01 T02350151  RH  059%=      5-min Rain = 0
KBO1 150403Z 14008KT 24/15 A3024 RMK A01 T02350150  RH  059%=      5-min Rain = 0
KBO1 150404Z 13007KT 24/15 A3024 RMK A01 T02360149  RH  058%=      5-min Rain = 0
KBO1 150405Z 12007KT 24/15 A3024 RMK A01 T02380151  RH  058%=      5-min Rain = 0
KBO1 150406Z 13007KT 24/15 A3024 RMK A01 T02370152  RH  059%=      5-min Rain = 0
KBO1 150407Z 14007KT 24/15 A3024 RMK A01 T02360152  RH  059%=      5-min Rain = 0
KBO1 150408Z 15007KT 24/15 A3024 RMK A01 T02350151  RH  059%=      5-min Rain = 0
KBO1 150409Z 15007KT 24/15 A3024 RMK A01 T02350148  RH  058%=      5-min Rain = 0
KBO1 150410Z 15007KT 24/15 A3024 RMK A01 T02360149  RH  058%=      5-min Rain = 0
KBO1 150411Z 15007KT 24/15 A3024 RMK A01 T02370148  RH  057%=      5-min Rain = 0
KBO1 150412Z 15006KT 24/15 A3024 RMK A01 T02380147  RH  057%=      5-min Rain = 0
KBO1 150413Z 14005KT 24/15 A3024 RMK A01 T02380148  RH  057%=      5-min Rain = 0
KBO1 150414Z 13005KT 24/15 A3024 RMK A01 T02390150  RH  057%=      5-min Rain = 0
KBO1 150415Z 14006KT 24/15 A3024 RMK A01 T02380149  RH  058%=      5-min Rain = 0
KBO1 150416Z 14005KT 24/15 A3024 RMK A01 T02380149  RH  058%=      5-min Rain = 0
KBO1 150417Z 14005KT 24/15 A3024 RMK A01 T02370150  RH  058%=      5-min Rain = 0
KBO1 150418Z 14005KT 24/15 A3024 RMK A01 T02370151  RH  059%=      5-min Rain = 0
KBO1 150419Z 15005KT 24/15 A3024 RMK A01 T02360150  RH  058%=      5-min Rain = 0
KBO1 150420Z 15005KT 24/15 A3024 RMK A01 T02360150  RH  059%=      5-min Rain = 0
KBO1 150421Z 14004KT 24/15 A3024 RMK A01 T02360150  RH  058%=      5-min Rain = 0
KBO1 150422Z 14005KT 24/15 A3024 RMK A01 T02360150  RH  059%=      5-min Rain = 0
KBO1 150423Z 14005KT 24/15 A3024 RMK A01 T02360151  RH  059%=      5-min Rain = 0
KBO1 150424Z 14005KT 24/15 A3024 RMK A01 T02360150  RH  058%=      5-min Rain = 0
KBO1 150425Z 14006KT 24/15 A3024 RMK A01 T02360150  RH  058%=      5-min Rain = 0
KBO1 150426Z 14006KT 24/15 A3024 RMK A01 T02360150  RH  058%=      5-min Rain = 0
KBO1 150427Z 14007KT 24/15 A3024 RMK A01 T02360149  RH  058%=      5-min Rain = 0
KBO1 150428Z 14008KT 24/15 A3024 RMK A01 T02360150  RH  058%=      5-min Rain = 0
KBO1 150429Z 14009KT 24/15 A3024 RMK A01 T02360147  RH  057%=      5-min Rain = 0
KBO1 150430Z 14009KT 24/14 A3024 RMK A01 T02380144  RH  056%=      5-min Rain = 0
KBO1 150431Z 13009KT 24/15 A3024 RMK A01 T02400145  RH  055%=      5-min Rain = 0
KBO1 150432Z 14009KT 24/14 A3024 RMK A01 T02410144  RH  054%=      5-min Rain = 0
KBO1 150433Z 13009KT 24/14 A3024 RMK A01 T02420143  RH  054%=      5-min Rain = 0
KBO1 150434Z 13009KT 24/14 A3024 RMK A01 T02420144  RH  054%=      5-min Rain = 0
KBO1 150435Z 14009KT 24/14 A3024 RMK A01 T02420144  RH  054%=      5-min Rain = 0
KBO1 150436Z 13009KT 24/14 A3024 RMK A01 T02420143  RH  054%=      5-min Rain = 0
KBO1 150437Z 14009KT 24/14 A3024 RMK A01 T02420144  RH  054%=      5-min Rain = 0
KBO1 150438Z 14008KT 24/14 A3024 RMK A01 T02410144  RH  055%=      5-min Rain = 0
KBO1 150439Z 14009KT 24/14 A3023 RMK A01 T02410143  RH  054%=      5-min Rain = 0
KBO1 150440Z 14009KT 24/14 A3023 RMK A01 T02410143  RH  055%=      5-min Rain = 0
KBO1 150441Z 15008KT 24/14 A3023 RMK A01 T02400144  RH  055%=      5-min Rain = 0
KBO1 150442Z 15009KT 24/14 A3023 RMK A01 T02400142  RH  054%=      5-min Rain = 0
KBO1 150443Z 15008KT 24/14 A3023 RMK A01 T02400142  RH  054%=      5-min Rain = 0
KBO1 150444Z 15010KT 24/14 A3023 RMK A01 T02400141  RH  054%=      5-min Rain = 0
KBO1 150445Z 15009KT 24/14 A3023 RMK A01 T02400139  RH  053%=      5-min Rain = 0
KBO1 150446Z 15009KT 24/14 A3023 RMK A01 T02410139  RH  053%=      5-min Rain = 0
KBO1 150447Z 15009KT 24/14 A3023 RMK A01 T02420139  RH  052%=      5-min Rain = 0
KBO1 150448Z 16008KT 24/14 A3023 RMK A01 T02430138  RH  052%=      5-min Rain = 0
KBO1 150449Z 15009KT 24/14 A3023 RMK A01 T02430138  RH  052%=      5-min Rain = 0
KBO1 150450Z 16009KT 24/14 A3024 RMK A01 T02440137  RH  051%=      5-min Rain = 0
KBO1 150451Z 16010KT 25/14 A3024 RMK A01 T02450137  RH  051%=      5-min Rain = 0
KBO1 150452Z 16009KT 25/14 A3024 RMK A01 T02450136  RH  051%=      5-min Rain = 0
KBO1 150453Z 16009KT 25/14 A3024 RMK A01 T02450136  RH  051%=      5-min Rain = 0
KBO1 150454Z 16009KT 25/14 A3024 RMK A01 T02450136  RH  050%=      5-min Rain = 0
KBO1 150455Z 16008KT 25/14 A3024 RMK A01 T02460135  RH  050%=      5-min Rain = 0
KBO1 150456Z 16008KT 25/14 A3024 RMK A01 T02460135  RH  050%=      5-min Rain = 0
KBO1 150457Z 15009KT 25/14 A3024 RMK A01 T02460135  RH  050%=      5-min Rain = 0
KBO1 150458Z 15009KT 25/13 A3024 RMK A01 T02460134  RH  049%=      5-min Rain = 0
KBO1 150459Z 15008KT 25/13 A3024 RMK A01 T02470134  RH  049%=      5-min Rain = 0

Page generated in 0.1212 seconds.